<?xml version="1.0" encoding="UTF-8" standalone="no" ?>
<gpx xmlns="http://www.topografix.com/GPX/1/1" creator="MapSource 6.11.6" version="1.1" xmlns:xsi="http://www.w3.org/2001/XMLSchema-instance" xsi:schemaLocation="http://www.topografix.com/GPX/1/1 http://www.topografix.com/GPX/1/1/gpx.xsd">

  <metadata>
    <link href="http://www.garmin.com">
      <text>Garmin International</text>
    </link>
    <time>2009-05-23T17:06:41Z</time>
    <bounds maxlat="53.032674" maxlon="13.167395" minlat="52.929699" minlon="12.981028"/>
  </metadata>

  <trk>
    <name>Lindow, Grossmutz, Meseberg, Gransee, Rauschendorf</name>
    <extensions>
      <gpxx:TrackExtension xmlns:gpxx="http://www.garmin.com/xmlschemas/GpxExtensions/v3" xmlns:xsi="http://www.w3.org/2001/XMLSchema-instance" xsi:schemaLocation="http://www.garmin.com/xmlschemas/GpxExtensions/v3 http://www.garmin.com/xmlschemas/GpxExtensions/v3/GpxExtensionsv3.xsd">
        <gpxx:DisplayColor>White</gpxx:DisplayColor>
      </gpxx:TrackExtension>
    </extensions>
    <trkseg>
      <trkpt lat="52.971350" lon="12.991202">
        <ele>-2.270000</ele>
        <time>2009-05-19T06:14:05Z</time>
      </trkpt>
      <trkpt lat="52.970987" lon="12.991072">
        <ele>-2.750000</ele>
        <time>2009-05-19T06:14:21Z</time>
      </trkpt>
      <trkpt lat="52.971042" lon="12.990649">
        <ele>-3.230000</ele>
        <time>2009-05-19T06:14:33Z</time>
      </trkpt>
      <trkpt lat="52.971042" lon="12.990649">
        <ele>31.380000</ele>
        <time>2009-05-19T08:08:17Z</time>
      </trkpt>
      <trkpt lat="52.971042" lon="12.990649">
        <ele>-9.000000</ele>
        <time>2009-05-19T08:08:18Z</time>
      </trkpt>
      <trkpt lat="52.971042" lon="12.990649">
        <ele>-9.000000</ele>
        <time>2009-05-19T08:08:19Z</time>
      </trkpt>
      <trkpt lat="52.971067" lon="12.987974">
        <ele>-9.480000</ele>
        <time>2009-05-19T08:08:21Z</time>
      </trkpt>
      <trkpt lat="52.971039" lon="12.987956">
        <ele>-9.480000</ele>
        <time>2009-05-19T08:08:22Z</time>
      </trkpt>
      <trkpt lat="52.970942" lon="12.987884">
        <ele>-9.480000</ele>
        <time>2009-05-19T08:08:26Z</time>
      </trkpt>
      <trkpt lat="52.970571" lon="12.987581">
        <ele>-6.110000</ele>
        <time>2009-05-19T08:08:41Z</time>
      </trkpt>
      <trkpt lat="52.970529" lon="12.987534">
        <ele>-2.750000</ele>
        <time>2009-05-19T08:08:43Z</time>
      </trkpt>
      <trkpt lat="52.970491" lon="12.987485">
        <ele>0.140000</ele>
        <time>2009-05-19T08:08:45Z</time>
      </trkpt>
      <trkpt lat="52.970449" lon="12.987441">
        <ele>3.980000</ele>
        <time>2009-05-19T08:08:47Z</time>
      </trkpt>
      <trkpt lat="52.970388" lon="12.987377">
        <ele>7.830000</ele>
        <time>2009-05-19T08:08:50Z</time>
      </trkpt>
      <trkpt lat="52.970329" lon="12.987284">
        <ele>11.190000</ele>
        <time>2009-05-19T08:08:53Z</time>
      </trkpt>
      <trkpt lat="52.970264" lon="12.987206">
        <ele>15.040000</ele>
        <time>2009-05-19T08:08:56Z</time>
      </trkpt>
      <trkpt lat="52.970207" lon="12.987148">
        <ele>18.400000</ele>
        <time>2009-05-19T08:08:59Z</time>
      </trkpt>
      <trkpt lat="52.970176" lon="12.987088">
        <ele>19.840000</ele>
        <time>2009-05-19T08:09:01Z</time>
      </trkpt>
      <trkpt lat="52.970112" lon="12.986995">
        <ele>23.690000</ele>
        <time>2009-05-19T08:09:04Z</time>
      </trkpt>
      <trkpt lat="52.970036" lon="12.986894">
        <ele>26.090000</ele>
        <time>2009-05-19T08:09:08Z</time>
      </trkpt>
      <trkpt lat="52.969918" lon="12.986749">
        <ele>29.460000</ele>
        <time>2009-05-19T08:09:14Z</time>
      </trkpt>
      <trkpt lat="52.969740" lon="12.986578">
        <ele>32.340000</ele>
        <time>2009-05-19T08:09:21Z</time>
      </trkpt>
      <trkpt lat="52.969362" lon="12.986321">
        <ele>35.710000</ele>
        <time>2009-05-19T08:09:34Z</time>
      </trkpt>
      <trkpt lat="52.968989" lon="12.986081">
        <ele>37.150000</ele>
        <time>2009-05-19T08:09:48Z</time>
      </trkpt>
      <trkpt lat="52.968603" lon="12.985843">
        <ele>38.590000</ele>
        <time>2009-05-19T08:10:02Z</time>
      </trkpt>
      <trkpt lat="52.968546" lon="12.985809">
        <ele>38.110000</ele>
        <time>2009-05-19T08:10:04Z</time>
      </trkpt>
      <trkpt lat="52.968422" lon="12.985676">
        <ele>39.550000</ele>
        <time>2009-05-19T08:10:09Z</time>
      </trkpt>
      <trkpt lat="52.968110" lon="12.985530">
        <ele>39.070000</ele>
        <time>2009-05-19T08:10:20Z</time>
      </trkpt>
      <trkpt lat="52.967778" lon="12.985375">
        <ele>39.070000</ele>
        <time>2009-05-19T08:10:32Z</time>
      </trkpt>
      <trkpt lat="52.967450" lon="12.985224">
        <ele>39.070000</ele>
        <time>2009-05-19T08:10:45Z</time>
      </trkpt>
      <trkpt lat="52.967103" lon="12.985125">
        <ele>39.070000</ele>
        <time>2009-05-19T08:10:59Z</time>
      </trkpt>
      <trkpt lat="52.966928" lon="12.985503">
        <ele>39.070000</ele>
        <time>2009-05-19T08:11:10Z</time>
      </trkpt>
      <trkpt lat="52.966789" lon="12.986143">
        <ele>39.550000</ele>
        <time>2009-05-19T08:11:24Z</time>
      </trkpt>
      <trkpt lat="52.966650" lon="12.986800">
        <ele>40.030000</ele>
        <time>2009-05-19T08:11:39Z</time>
      </trkpt>
      <trkpt lat="52.966504" lon="12.987550">
        <ele>39.550000</ele>
        <time>2009-05-19T08:11:54Z</time>
      </trkpt>
      <trkpt lat="52.966286" lon="12.988239">
        <ele>39.550000</ele>
        <time>2009-05-19T08:12:09Z</time>
      </trkpt>
      <trkpt lat="52.965878" lon="12.988733">
        <ele>39.550000</ele>
        <time>2009-05-19T08:12:25Z</time>
      </trkpt>
      <trkpt lat="52.965345" lon="12.989346">
        <ele>40.510000</ele>
        <time>2009-05-19T08:12:45Z</time>
      </trkpt>
      <trkpt lat="52.965015" lon="12.989678">
        <ele>40.030000</ele>
        <time>2009-05-19T08:12:59Z</time>
      </trkpt>
      <trkpt lat="52.964710" lon="12.990039">
        <ele>40.990000</ele>
        <time>2009-05-19T08:13:13Z</time>
      </trkpt>
      <trkpt lat="52.964413" lon="12.990342">
        <ele>41.950000</ele>
        <time>2009-05-19T08:13:26Z</time>
      </trkpt>
      <trkpt lat="52.964042" lon="12.990770">
        <ele>42.440000</ele>
        <time>2009-05-19T08:13:42Z</time>
      </trkpt>
      <trkpt lat="52.963678" lon="12.991162">
        <ele>43.880000</ele>
        <time>2009-05-19T08:13:58Z</time>
      </trkpt>
      <trkpt lat="52.963473" lon="12.991441">
        <ele>43.880000</ele>
        <time>2009-05-19T08:14:08Z</time>
      </trkpt>
      <trkpt lat="52.963065" lon="12.991861">
        <ele>44.360000</ele>
        <time>2009-05-19T08:14:23Z</time>
      </trkpt>
      <trkpt lat="52.962693" lon="12.992460">
        <ele>42.920000</ele>
        <time>2009-05-19T08:14:37Z</time>
      </trkpt>
      <trkpt lat="52.962631" lon="12.992564">
        <ele>42.920000</ele>
        <time>2009-05-19T08:14:39Z</time>
      </trkpt>
      <trkpt lat="52.962197" lon="12.993421">
        <ele>41.470000</ele>
        <time>2009-05-19T08:14:54Z</time>
      </trkpt>
      <trkpt lat="52.962048" lon="12.993788">
        <ele>40.990000</ele>
        <time>2009-05-19T08:15:00Z</time>
      </trkpt>
      <trkpt lat="52.961987" lon="12.993992">
        <ele>40.990000</ele>
        <time>2009-05-19T08:15:03Z</time>
      </trkpt>
      <trkpt lat="52.961958" lon="12.994140">
        <ele>40.990000</ele>
        <time>2009-05-19T08:15:05Z</time>
      </trkpt>
      <trkpt lat="52.961788" lon="12.994909">
        <ele>40.510000</ele>
        <time>2009-05-19T08:15:18Z</time>
      </trkpt>
      <trkpt lat="52.961639" lon="12.995590">
        <ele>40.990000</ele>
        <time>2009-05-19T08:15:31Z</time>
      </trkpt>
      <trkpt lat="52.961482" lon="12.996328">
        <ele>41.470000</ele>
        <time>2009-05-19T08:15:45Z</time>
      </trkpt>
      <trkpt lat="52.961320" lon="12.997036">
        <ele>41.470000</ele>
        <time>2009-05-19T08:15:58Z</time>
      </trkpt>
      <trkpt lat="52.961078" lon="12.997935">
        <ele>41.470000</ele>
        <time>2009-05-19T08:16:12Z</time>
      </trkpt>
      <trkpt lat="52.960987" lon="12.998379">
        <ele>42.440000</ele>
        <time>2009-05-19T08:16:23Z</time>
      </trkpt>
      <trkpt lat="52.960860" lon="12.998837">
        <ele>42.920000</ele>
        <time>2009-05-19T08:16:34Z</time>
      </trkpt>
      <trkpt lat="52.960836" lon="12.998928">
        <ele>42.920000</ele>
        <time>2009-05-19T08:16:36Z</time>
      </trkpt>
      <trkpt lat="52.960770" lon="12.999151">
        <ele>43.400000</ele>
        <time>2009-05-19T08:16:41Z</time>
      </trkpt>
      <trkpt lat="52.960510" lon="12.999652">
        <ele>43.880000</ele>
        <time>2009-05-19T08:16:52Z</time>
      </trkpt>
      <trkpt lat="52.960352" lon="13.000259">
        <ele>45.320000</ele>
        <time>2009-05-19T08:17:08Z</time>
      </trkpt>
      <trkpt lat="52.960242" lon="13.000674">
        <ele>46.760000</ele>
        <time>2009-05-19T08:17:20Z</time>
      </trkpt>
      <trkpt lat="52.960123" lon="13.001090">
        <ele>47.720000</ele>
        <time>2009-05-19T08:17:32Z</time>
      </trkpt>
      <trkpt lat="52.959953" lon="13.001629">
        <ele>48.680000</ele>
        <time>2009-05-19T08:17:47Z</time>
      </trkpt>
      <trkpt lat="52.959561" lon="13.002076">
        <ele>47.720000</ele>
        <time>2009-05-19T08:18:02Z</time>
      </trkpt>
      <trkpt lat="52.959028" lon="13.002538">
        <ele>47.720000</ele>
        <time>2009-05-19T08:18:18Z</time>
      </trkpt>
      <trkpt lat="52.958501" lon="13.003029">
        <ele>47.720000</ele>
        <time>2009-05-19T08:18:35Z</time>
      </trkpt>
      <trkpt lat="52.957965" lon="13.003498">
        <ele>47.720000</ele>
        <time>2009-05-19T08:18:51Z</time>
      </trkpt>
      <trkpt lat="52.957312" lon="13.004088">
        <ele>47.720000</ele>
        <time>2009-05-19T08:19:11Z</time>
      </trkpt>
      <trkpt lat="52.956770" lon="13.004580">
        <ele>48.200000</ele>
        <time>2009-05-19T08:19:29Z</time>
      </trkpt>
      <trkpt lat="52.956248" lon="13.005045">
        <ele>48.200000</ele>
        <time>2009-05-19T08:19:45Z</time>
      </trkpt>
      <trkpt lat="52.955509" lon="13.005535">
        <ele>46.760000</ele>
        <time>2009-05-19T08:20:03Z</time>
      </trkpt>
      <trkpt lat="52.954867" lon="13.005966">
        <ele>46.760000</ele>
        <time>2009-05-19T08:20:20Z</time>
      </trkpt>
      <trkpt lat="52.954268" lon="13.006370">
        <ele>46.280000</ele>
        <time>2009-05-19T08:20:37Z</time>
      </trkpt>
      <trkpt lat="52.953680" lon="13.006767">
        <ele>46.280000</ele>
        <time>2009-05-19T08:20:54Z</time>
      </trkpt>
      <trkpt lat="52.953023" lon="13.007220">
        <ele>46.280000</ele>
        <time>2009-05-19T08:21:13Z</time>
      </trkpt>
      <trkpt lat="52.952464" lon="13.007589">
        <ele>45.800000</ele>
        <time>2009-05-19T08:21:30Z</time>
      </trkpt>
      <trkpt lat="52.951782" lon="13.008058">
        <ele>45.320000</ele>
        <time>2009-05-19T08:21:48Z</time>
      </trkpt>
      <trkpt lat="52.951353" lon="13.008340">
        <ele>45.800000</ele>
        <time>2009-05-19T08:22:01Z</time>
      </trkpt>
      <trkpt lat="52.950989" lon="13.008598">
        <ele>45.800000</ele>
        <time>2009-05-19T08:22:12Z</time>
      </trkpt>
      <trkpt lat="52.950540" lon="13.008931">
        <ele>45.320000</ele>
        <time>2009-05-19T08:22:26Z</time>
      </trkpt>
      <trkpt lat="52.949967" lon="13.009334">
        <ele>45.800000</ele>
        <time>2009-05-19T08:22:43Z</time>
      </trkpt>
      <trkpt lat="52.949482" lon="13.009654">
        <ele>45.320000</ele>
        <time>2009-05-19T08:22:58Z</time>
      </trkpt>
      <trkpt lat="52.948871" lon="13.010062">
        <ele>45.800000</ele>
        <time>2009-05-19T08:23:16Z</time>
      </trkpt>
      <trkpt lat="52.948394" lon="13.010389">
        <ele>45.800000</ele>
        <time>2009-05-19T08:23:31Z</time>
      </trkpt>
      <trkpt lat="52.947840" lon="13.010763">
        <ele>46.280000</ele>
        <time>2009-05-19T08:23:48Z</time>
      </trkpt>
      <trkpt lat="52.947291" lon="13.011133">
        <ele>45.320000</ele>
        <time>2009-05-19T08:24:06Z</time>
      </trkpt>
      <trkpt lat="52.946668" lon="13.011563">
        <ele>45.320000</ele>
        <time>2009-05-19T08:24:25Z</time>
      </trkpt>
      <trkpt lat="52.946070" lon="13.011960">
        <ele>45.320000</ele>
        <time>2009-05-19T08:24:43Z</time>
      </trkpt>
      <trkpt lat="52.945669" lon="13.012236">
        <ele>46.280000</ele>
        <time>2009-05-19T08:24:55Z</time>
      </trkpt>
      <trkpt lat="52.945155" lon="13.012583">
        <ele>45.800000</ele>
        <time>2009-05-19T08:25:10Z</time>
      </trkpt>
      <trkpt lat="52.944550" lon="13.012982">
        <ele>45.320000</ele>
        <time>2009-05-19T08:25:28Z</time>
      </trkpt>
      <trkpt lat="52.943967" lon="13.013376">
        <ele>45.320000</ele>
        <time>2009-05-19T08:25:45Z</time>
      </trkpt>
      <trkpt lat="52.943388" lon="13.013768">
        <ele>44.840000</ele>
        <time>2009-05-19T08:26:02Z</time>
      </trkpt>
      <trkpt lat="52.943032" lon="13.014020">
        <ele>43.880000</ele>
        <time>2009-05-19T08:26:12Z</time>
      </trkpt>
      <trkpt lat="52.942433" lon="13.014417">
        <ele>43.880000</ele>
        <time>2009-05-19T08:26:29Z</time>
      </trkpt>
      <trkpt lat="52.941934" lon="13.014763">
        <ele>43.880000</ele>
        <time>2009-05-19T08:26:44Z</time>
      </trkpt>
      <trkpt lat="52.941362" lon="13.015144">
        <ele>43.880000</ele>
        <time>2009-05-19T08:27:01Z</time>
      </trkpt>
      <trkpt lat="52.940749" lon="13.015481">
        <ele>44.840000</ele>
        <time>2009-05-19T08:27:18Z</time>
      </trkpt>
      <trkpt lat="52.940111" lon="13.015575">
        <ele>45.320000</ele>
        <time>2009-05-19T08:27:36Z</time>
      </trkpt>
      <trkpt lat="52.939610" lon="13.015824">
        <ele>45.800000</ele>
        <time>2009-05-19T08:27:53Z</time>
      </trkpt>
      <trkpt lat="52.939504" lon="13.016430">
        <ele>45.800000</ele>
        <time>2009-05-19T08:28:05Z</time>
      </trkpt>
      <trkpt lat="52.939511" lon="13.017344">
        <ele>46.760000</ele>
        <time>2009-05-19T08:28:22Z</time>
      </trkpt>
      <trkpt lat="52.939531" lon="13.017881">
        <ele>46.280000</ele>
        <time>2009-05-19T08:28:33Z</time>
      </trkpt>
      <trkpt lat="52.939548" lon="13.018574">
        <ele>46.280000</ele>
        <time>2009-05-19T08:28:45Z</time>
      </trkpt>
      <trkpt lat="52.939546" lon="13.019212">
        <ele>46.760000</ele>
        <time>2009-05-19T08:28:56Z</time>
      </trkpt>
      <trkpt lat="52.939504" lon="13.019984">
        <ele>46.760000</ele>
        <time>2009-05-19T08:29:09Z</time>
      </trkpt>
      <trkpt lat="52.939443" lon="13.020653">
        <ele>46.760000</ele>
        <time>2009-05-19T08:29:20Z</time>
      </trkpt>
      <trkpt lat="52.939348" lon="13.021546">
        <ele>46.280000</ele>
        <time>2009-05-19T08:29:34Z</time>
      </trkpt>
      <trkpt lat="52.939240" lon="13.022310">
        <ele>45.320000</ele>
        <time>2009-05-19T08:29:46Z</time>
      </trkpt>
      <trkpt lat="52.939155" lon="13.022965">
        <ele>44.840000</ele>
        <time>2009-05-19T08:29:56Z</time>
      </trkpt>
      <trkpt lat="52.939101" lon="13.023749">
        <ele>43.880000</ele>
        <time>2009-05-19T08:30:08Z</time>
      </trkpt>
      <trkpt lat="52.939104" lon="13.024862">
        <ele>42.920000</ele>
        <time>2009-05-19T08:30:24Z</time>
      </trkpt>
      <trkpt lat="52.939115" lon="13.025447">
        <ele>43.400000</ele>
        <time>2009-05-19T08:30:37Z</time>
      </trkpt>
      <trkpt lat="52.939092" lon="13.025653">
        <ele>43.400000</ele>
        <time>2009-05-19T08:30:46Z</time>
      </trkpt>
      <trkpt lat="52.939132" lon="13.025529">
        <ele>43.400000</ele>
        <time>2009-05-19T08:30:55Z</time>
      </trkpt>
      <trkpt lat="52.939144" lon="13.025399">
        <ele>43.400000</ele>
        <time>2009-05-19T08:30:58Z</time>
      </trkpt>
      <trkpt lat="52.939132" lon="13.025177">
        <ele>42.920000</ele>
        <time>2009-05-19T08:31:02Z</time>
      </trkpt>
      <trkpt lat="52.938964" lon="13.025253">
        <ele>42.920000</ele>
        <time>2009-05-19T08:31:10Z</time>
      </trkpt>
      <trkpt lat="52.938557" lon="13.025989">
        <ele>42.920000</ele>
        <time>2009-05-19T08:31:27Z</time>
      </trkpt>
      <trkpt lat="52.938259" lon="13.026570">
        <ele>42.440000</ele>
        <time>2009-05-19T08:31:40Z</time>
      </trkpt>
      <trkpt lat="52.938032" lon="13.027064">
        <ele>42.440000</ele>
        <time>2009-05-19T08:31:52Z</time>
      </trkpt>
      <trkpt lat="52.937831" lon="13.027645">
        <ele>41.470000</ele>
        <time>2009-05-19T08:32:04Z</time>
      </trkpt>
      <trkpt lat="52.937740" lon="13.027850">
        <ele>41.470000</ele>
        <time>2009-05-19T08:32:08Z</time>
      </trkpt>
      <trkpt lat="52.937355" lon="13.028518">
        <ele>40.510000</ele>
        <time>2009-05-19T08:32:17Z</time>
      </trkpt>
      <trkpt lat="52.937257" lon="13.029019">
        <ele>39.550000</ele>
        <time>2009-05-19T08:32:25Z</time>
      </trkpt>
      <trkpt lat="52.937166" lon="13.029363">
        <ele>40.030000</ele>
        <time>2009-05-19T08:32:33Z</time>
      </trkpt>
      <trkpt lat="52.936714" lon="13.029916">
        <ele>39.550000</ele>
        <time>2009-05-19T08:32:47Z</time>
      </trkpt>
      <trkpt lat="52.936363" lon="13.030237">
        <ele>39.550000</ele>
        <time>2009-05-19T08:32:57Z</time>
      </trkpt>
      <trkpt lat="52.936268" lon="13.030302">
        <ele>39.550000</ele>
        <time>2009-05-19T08:33:00Z</time>
      </trkpt>
      <trkpt lat="52.936136" lon="13.030332">
        <ele>39.550000</ele>
        <time>2009-05-19T08:33:05Z</time>
      </trkpt>
      <trkpt lat="52.935658" lon="13.030311">
        <ele>39.550000</ele>
        <time>2009-05-19T08:33:19Z</time>
      </trkpt>
      <trkpt lat="52.935172" lon="13.030234">
        <ele>39.550000</ele>
        <time>2009-05-19T08:33:32Z</time>
      </trkpt>
      <trkpt lat="52.934949" lon="13.030040">
        <ele>39.070000</ele>
        <time>2009-05-19T08:33:39Z</time>
      </trkpt>
      <trkpt lat="52.934873" lon="13.029762">
        <ele>38.590000</ele>
        <time>2009-05-19T08:33:43Z</time>
      </trkpt>
      <trkpt lat="52.934683" lon="13.028793">
        <ele>38.590000</ele>
        <time>2009-05-19T08:34:00Z</time>
      </trkpt>
      <trkpt lat="52.934539" lon="13.028365">
        <ele>38.590000</ele>
        <time>2009-05-19T08:34:15Z</time>
      </trkpt>
      <trkpt lat="52.934540" lon="13.028362">
        <ele>38.110000</ele>
        <time>2009-05-19T08:35:44Z</time>
      </trkpt>
      <trkpt lat="52.934530" lon="13.028377">
        <ele>38.590000</ele>
        <time>2009-05-19T08:36:06Z</time>
      </trkpt>
      <trkpt lat="52.934664" lon="13.028708">
        <ele>37.630000</ele>
        <time>2009-05-19T08:36:17Z</time>
      </trkpt>
      <trkpt lat="52.934822" lon="13.029611">
        <ele>37.630000</ele>
        <time>2009-05-19T08:36:33Z</time>
      </trkpt>
      <trkpt lat="52.934883" lon="13.029969">
        <ele>38.110000</ele>
        <time>2009-05-19T08:36:40Z</time>
      </trkpt>
      <trkpt lat="52.935223" lon="13.030267">
        <ele>38.590000</ele>
        <time>2009-05-19T08:36:52Z</time>
      </trkpt>
      <trkpt lat="52.935731" lon="13.030322">
        <ele>38.590000</ele>
        <time>2009-05-19T08:37:06Z</time>
      </trkpt>
      <trkpt lat="52.936118" lon="13.030368">
        <ele>38.590000</ele>
        <time>2009-05-19T08:37:17Z</time>
      </trkpt>
      <trkpt lat="52.936452" lon="13.030190">
        <ele>38.590000</ele>
        <time>2009-05-19T08:37:27Z</time>
      </trkpt>
      <trkpt lat="52.937022" lon="13.029582">
        <ele>39.070000</ele>
        <time>2009-05-19T08:37:46Z</time>
      </trkpt>
      <trkpt lat="52.937253" lon="13.029130">
        <ele>39.550000</ele>
        <time>2009-05-19T08:37:56Z</time>
      </trkpt>
      <trkpt lat="52.937349" lon="13.028691">
        <ele>39.550000</ele>
        <time>2009-05-19T08:38:03Z</time>
      </trkpt>
      <trkpt lat="52.937556" lon="13.028035">
        <ele>40.990000</ele>
        <time>2009-05-19T08:38:15Z</time>
      </trkpt>
      <trkpt lat="52.937711" lon="13.027699">
        <ele>40.990000</ele>
        <time>2009-05-19T08:38:24Z</time>
      </trkpt>
      <trkpt lat="52.937855" lon="13.027413">
        <ele>42.440000</ele>
        <time>2009-05-19T08:38:31Z</time>
      </trkpt>
      <trkpt lat="52.938262" lon="13.026612">
        <ele>42.920000</ele>
        <time>2009-05-19T08:38:50Z</time>
      </trkpt>
      <trkpt lat="52.938621" lon="13.025901">
        <ele>43.400000</ele>
        <time>2009-05-19T08:39:07Z</time>
      </trkpt>
      <trkpt lat="52.938980" lon="13.025265">
        <ele>43.400000</ele>
        <time>2009-05-19T08:39:22Z</time>
      </trkpt>
      <trkpt lat="52.939098" lon="13.025115">
        <ele>43.400000</ele>
        <time>2009-05-19T08:39:28Z</time>
      </trkpt>
      <trkpt lat="52.939148" lon="13.025329">
        <ele>43.400000</ele>
        <time>2009-05-19T08:39:33Z</time>
      </trkpt>
      <trkpt lat="52.939141" lon="13.026223">
        <ele>42.920000</ele>
        <time>2009-05-19T08:39:49Z</time>
      </trkpt>
      <trkpt lat="52.939206" lon="13.026894">
        <ele>43.400000</ele>
        <time>2009-05-19T08:40:02Z</time>
      </trkpt>
      <trkpt lat="52.939238" lon="13.027251">
        <ele>43.400000</ele>
        <time>2009-05-19T08:40:11Z</time>
      </trkpt>
      <trkpt lat="52.939230" lon="13.027433">
        <ele>43.400000</ele>
        <time>2009-05-19T08:40:17Z</time>
      </trkpt>
      <trkpt lat="52.939210" lon="13.027944">
        <ele>43.880000</ele>
        <time>2009-05-19T08:40:32Z</time>
      </trkpt>
      <trkpt lat="52.939213" lon="13.028057">
        <ele>43.880000</ele>
        <time>2009-05-19T08:40:34Z</time>
      </trkpt>
      <trkpt lat="52.939224" lon="13.028158">
        <ele>44.360000</ele>
        <time>2009-05-19T08:40:36Z</time>
      </trkpt>
      <trkpt lat="52.939298" lon="13.028842">
        <ele>44.360000</ele>
        <time>2009-05-19T08:40:49Z</time>
      </trkpt>
      <trkpt lat="52.939317" lon="13.029492">
        <ele>44.360000</ele>
        <time>2009-05-19T08:41:00Z</time>
      </trkpt>
      <trkpt lat="52.939361" lon="13.030071">
        <ele>44.840000</ele>
        <time>2009-05-19T08:41:10Z</time>
      </trkpt>
      <trkpt lat="52.939385" lon="13.030569">
        <ele>44.360000</ele>
        <time>2009-05-19T08:41:19Z</time>
      </trkpt>
      <trkpt lat="52.939449" lon="13.031097">
        <ele>46.280000</ele>
        <time>2009-05-19T08:41:28Z</time>
      </trkpt>
      <trkpt lat="52.939517" lon="13.031783">
        <ele>45.800000</ele>
        <time>2009-05-19T08:41:39Z</time>
      </trkpt>
      <trkpt lat="52.939560" lon="13.032432">
        <ele>45.800000</ele>
        <time>2009-05-19T08:41:50Z</time>
      </trkpt>
      <trkpt lat="52.939645" lon="13.033196">
        <ele>45.800000</ele>
        <time>2009-05-19T08:42:03Z</time>
      </trkpt>
      <trkpt lat="52.939792" lon="13.033941">
        <ele>45.800000</ele>
        <time>2009-05-19T08:42:16Z</time>
      </trkpt>
      <trkpt lat="52.940007" lon="13.034768">
        <ele>45.800000</ele>
        <time>2009-05-19T08:42:31Z</time>
      </trkpt>
      <trkpt lat="52.940140" lon="13.035253">
        <ele>45.320000</ele>
        <time>2009-05-19T08:42:40Z</time>
      </trkpt>
      <trkpt lat="52.940192" lon="13.035455">
        <ele>45.320000</ele>
        <time>2009-05-19T08:42:44Z</time>
      </trkpt>
      <trkpt lat="52.940314" lon="13.036027">
        <ele>45.800000</ele>
        <time>2009-05-19T08:42:55Z</time>
      </trkpt>
      <trkpt lat="52.940492" lon="13.036607">
        <ele>45.800000</ele>
        <time>2009-05-19T08:43:06Z</time>
      </trkpt>
      <trkpt lat="52.940657" lon="13.037099">
        <ele>45.800000</ele>
        <time>2009-05-19T08:43:17Z</time>
      </trkpt>
      <trkpt lat="52.941076" lon="13.037730">
        <ele>45.800000</ele>
        <time>2009-05-19T08:43:31Z</time>
      </trkpt>
      <trkpt lat="52.941438" lon="13.038342">
        <ele>45.800000</ele>
        <time>2009-05-19T08:43:44Z</time>
      </trkpt>
      <trkpt lat="52.941841" lon="13.038883">
        <ele>46.280000</ele>
        <time>2009-05-19T08:44:01Z</time>
      </trkpt>
      <trkpt lat="52.942112" lon="13.039267">
        <ele>45.800000</ele>
        <time>2009-05-19T08:44:13Z</time>
      </trkpt>
      <trkpt lat="52.942537" lon="13.039885">
        <ele>44.840000</ele>
        <time>2009-05-19T08:44:28Z</time>
      </trkpt>
      <trkpt lat="52.942918" lon="13.040452">
        <ele>45.320000</ele>
        <time>2009-05-19T08:44:43Z</time>
      </trkpt>
      <trkpt lat="52.943054" lon="13.040671">
        <ele>46.760000</ele>
        <time>2009-05-19T08:44:49Z</time>
      </trkpt>
      <trkpt lat="52.943170" lon="13.040912">
        <ele>46.760000</ele>
        <time>2009-05-19T08:44:55Z</time>
      </trkpt>
      <trkpt lat="52.943407" lon="13.041411">
        <ele>48.200000</ele>
        <time>2009-05-19T08:45:08Z</time>
      </trkpt>
      <trkpt lat="52.943437" lon="13.041490">
        <ele>47.720000</ele>
        <time>2009-05-19T08:45:10Z</time>
      </trkpt>
      <trkpt lat="52.943520" lon="13.041656">
        <ele>48.680000</ele>
        <time>2009-05-19T08:45:15Z</time>
      </trkpt>
      <trkpt lat="52.943754" lon="13.042146">
        <ele>49.160000</ele>
        <time>2009-05-19T08:45:28Z</time>
      </trkpt>
      <trkpt lat="52.944148" lon="13.042885">
        <ele>49.160000</ele>
        <time>2009-05-19T08:45:46Z</time>
      </trkpt>
      <trkpt lat="52.944655" lon="13.043667">
        <ele>50.130000</ele>
        <time>2009-05-19T08:46:05Z</time>
      </trkpt>
      <trkpt lat="52.945104" lon="13.044510">
        <ele>50.130000</ele>
        <time>2009-05-19T08:46:26Z</time>
      </trkpt>
      <trkpt lat="52.945418" lon="13.045081">
        <ele>50.610000</ele>
        <time>2009-05-19T08:46:41Z</time>
      </trkpt>
      <trkpt lat="52.945697" lon="13.045526">
        <ele>50.610000</ele>
        <time>2009-05-19T08:46:54Z</time>
      </trkpt>
      <trkpt lat="52.946019" lon="13.046067">
        <ele>49.650000</ele>
        <time>2009-05-19T08:47:07Z</time>
      </trkpt>
      <trkpt lat="52.946228" lon="13.046423">
        <ele>50.130000</ele>
        <time>2009-05-19T08:47:17Z</time>
      </trkpt>
      <trkpt lat="52.946349" lon="13.046695">
        <ele>50.610000</ele>
        <time>2009-05-19T08:47:25Z</time>
      </trkpt>
      <trkpt lat="52.946409" lon="13.046809">
        <ele>50.610000</ele>
        <time>2009-05-19T08:47:28Z</time>
      </trkpt>
      <trkpt lat="52.946541" lon="13.047014">
        <ele>50.610000</ele>
        <time>2009-05-19T08:47:34Z</time>
      </trkpt>
      <trkpt lat="52.946788" lon="13.047519">
        <ele>50.130000</ele>
        <time>2009-05-19T08:47:46Z</time>
      </trkpt>
      <trkpt lat="52.947023" lon="13.047998">
        <ele>50.130000</ele>
        <time>2009-05-19T08:47:57Z</time>
      </trkpt>
      <trkpt lat="52.947106" lon="13.048175">
        <ele>50.130000</ele>
        <time>2009-05-19T08:48:02Z</time>
      </trkpt>
      <trkpt lat="52.947093" lon="13.048503">
        <ele>48.680000</ele>
        <time>2009-05-19T08:48:12Z</time>
      </trkpt>
      <trkpt lat="52.947085" lon="13.048545">
        <ele>48.680000</ele>
        <time>2009-05-19T08:48:13Z</time>
      </trkpt>
      <trkpt lat="52.946915" lon="13.049088">
        <ele>48.200000</ele>
        <time>2009-05-19T08:48:22Z</time>
      </trkpt>
      <trkpt lat="52.946639" lon="13.049748">
        <ele>49.160000</ele>
        <time>2009-05-19T08:48:37Z</time>
      </trkpt>
      <trkpt lat="52.946479" lon="13.050146">
        <ele>49.160000</ele>
        <time>2009-05-19T08:48:47Z</time>
      </trkpt>
      <trkpt lat="52.946162" lon="13.050805">
        <ele>48.200000</ele>
        <time>2009-05-19T08:49:00Z</time>
      </trkpt>
      <trkpt lat="52.945633" lon="13.051704">
        <ele>48.200000</ele>
        <time>2009-05-19T08:49:16Z</time>
      </trkpt>
      <trkpt lat="52.945344" lon="13.052173">
        <ele>48.200000</ele>
        <time>2009-05-19T08:49:27Z</time>
      </trkpt>
      <trkpt lat="52.945286" lon="13.052271">
        <ele>48.200000</ele>
        <time>2009-05-19T08:49:29Z</time>
      </trkpt>
      <trkpt lat="52.944881" lon="13.052949">
        <ele>48.200000</ele>
        <time>2009-05-19T08:49:43Z</time>
      </trkpt>
      <trkpt lat="52.944628" lon="13.053352">
        <ele>47.720000</ele>
        <time>2009-05-19T08:49:54Z</time>
      </trkpt>
      <trkpt lat="52.944628" lon="13.053352">
        <ele>48.200000</ele>
        <time>2009-05-19T08:50:30Z</time>
      </trkpt>
      <trkpt lat="52.944629" lon="13.053353">
        <ele>48.200000</ele>
        <time>2009-05-19T08:51:11Z</time>
      </trkpt>
      <trkpt lat="52.944598" lon="13.053420">
        <ele>48.200000</ele>
        <time>2009-05-19T08:52:49Z</time>
      </trkpt>
      <trkpt lat="52.944393" lon="13.053805">
        <ele>48.680000</ele>
        <time>2009-05-19T08:53:02Z</time>
      </trkpt>
      <trkpt lat="52.944029" lon="13.054394">
        <ele>48.680000</ele>
        <time>2009-05-19T08:53:19Z</time>
      </trkpt>
      <trkpt lat="52.943697" lon="13.054964">
        <ele>49.650000</ele>
        <time>2009-05-19T08:53:34Z</time>
      </trkpt>
      <trkpt lat="52.943293" lon="13.055638">
        <ele>49.160000</ele>
        <time>2009-05-19T08:53:51Z</time>
      </trkpt>
      <trkpt lat="52.942840" lon="13.056411">
        <ele>49.160000</ele>
        <time>2009-05-19T08:54:09Z</time>
      </trkpt>
      <trkpt lat="52.942422" lon="13.057110">
        <ele>49.160000</ele>
        <time>2009-05-19T08:54:25Z</time>
      </trkpt>
      <trkpt lat="52.942103" lon="13.057669">
        <ele>49.650000</ele>
        <time>2009-05-19T08:54:40Z</time>
      </trkpt>
      <trkpt lat="52.941718" lon="13.058304">
        <ele>49.650000</ele>
        <time>2009-05-19T08:54:56Z</time>
      </trkpt>
      <trkpt lat="52.941222" lon="13.059134">
        <ele>49.160000</ele>
        <time>2009-05-19T08:55:15Z</time>
      </trkpt>
      <trkpt lat="52.940751" lon="13.059961">
        <ele>50.130000</ele>
        <time>2009-05-19T08:55:34Z</time>
      </trkpt>
      <trkpt lat="52.940708" lon="13.060018">
        <ele>50.130000</ele>
        <time>2009-05-19T08:55:42Z</time>
      </trkpt>
      <trkpt lat="52.940708" lon="13.060018">
        <ele>50.130000</ele>
        <time>2009-05-19T08:56:08Z</time>
      </trkpt>
      <trkpt lat="52.940710" lon="13.060015">
        <ele>49.650000</ele>
        <time>2009-05-19T08:56:33Z</time>
      </trkpt>
      <trkpt lat="52.940712" lon="13.060016">
        <ele>50.130000</ele>
        <time>2009-05-19T08:56:59Z</time>
      </trkpt>
      <trkpt lat="52.940713" lon="13.060019">
        <ele>49.650000</ele>
        <time>2009-05-19T08:57:19Z</time>
      </trkpt>
      <trkpt lat="52.940720" lon="13.060026">
        <ele>50.130000</ele>
        <time>2009-05-19T08:57:34Z</time>
      </trkpt>
      <trkpt lat="52.940720" lon="13.060024">
        <ele>49.650000</ele>
        <time>2009-05-19T08:58:01Z</time>
      </trkpt>
      <trkpt lat="52.940720" lon="13.060024">
        <ele>50.130000</ele>
        <time>2009-05-19T08:58:21Z</time>
      </trkpt>
      <trkpt lat="52.940720" lon="13.060024">
        <ele>50.130000</ele>
        <time>2009-05-19T08:58:55Z</time>
      </trkpt>
      <trkpt lat="52.940722" lon="13.060025">
        <ele>50.130000</ele>
        <time>2009-05-19T08:59:19Z</time>
      </trkpt>
      <trkpt lat="52.940723" lon="13.060025">
        <ele>50.130000</ele>
        <time>2009-05-19T09:00:04Z</time>
      </trkpt>
      <trkpt lat="52.940725" lon="13.060030">
        <ele>50.130000</ele>
        <time>2009-05-19T09:00:29Z</time>
      </trkpt>
      <trkpt lat="52.940713" lon="13.060057">
        <ele>50.130000</ele>
        <time>2009-05-19T09:00:57Z</time>
      </trkpt>
      <trkpt lat="52.940497" lon="13.060384">
        <ele>50.130000</ele>
        <time>2009-05-19T09:01:08Z</time>
      </trkpt>
      <trkpt lat="52.940143" lon="13.061000">
        <ele>50.610000</ele>
        <time>2009-05-19T09:01:24Z</time>
      </trkpt>
      <trkpt lat="52.939806" lon="13.061571">
        <ele>50.610000</ele>
        <time>2009-05-19T09:01:39Z</time>
      </trkpt>
      <trkpt lat="52.939331" lon="13.062395">
        <ele>51.090000</ele>
        <time>2009-05-19T09:01:58Z</time>
      </trkpt>
      <trkpt lat="52.938856" lon="13.063187">
        <ele>51.090000</ele>
        <time>2009-05-19T09:02:16Z</time>
      </trkpt>
      <trkpt lat="52.938430" lon="13.063903">
        <ele>50.130000</ele>
        <time>2009-05-19T09:02:32Z</time>
      </trkpt>
      <trkpt lat="52.938034" lon="13.064540">
        <ele>50.610000</ele>
        <time>2009-05-19T09:02:48Z</time>
      </trkpt>
      <trkpt lat="52.937720" lon="13.065061">
        <ele>51.090000</ele>
        <time>2009-05-19T09:03:02Z</time>
      </trkpt>
      <trkpt lat="52.937546" lon="13.065321">
        <ele>50.130000</ele>
        <time>2009-05-19T09:03:09Z</time>
      </trkpt>
      <trkpt lat="52.936924" lon="13.066217">
        <ele>49.160000</ele>
        <time>2009-05-19T09:03:26Z</time>
      </trkpt>
      <trkpt lat="52.936339" lon="13.067117">
        <ele>48.200000</ele>
        <time>2009-05-19T09:03:42Z</time>
      </trkpt>
      <trkpt lat="52.936123" lon="13.067650">
        <ele>47.720000</ele>
        <time>2009-05-19T09:03:52Z</time>
      </trkpt>
      <trkpt lat="52.936097" lon="13.067778">
        <ele>47.720000</ele>
        <time>2009-05-19T09:03:54Z</time>
      </trkpt>
      <trkpt lat="52.936055" lon="13.068051">
        <ele>47.720000</ele>
        <time>2009-05-19T09:03:58Z</time>
      </trkpt>
      <trkpt lat="52.935981" lon="13.068848">
        <ele>47.720000</ele>
        <time>2009-05-19T09:04:11Z</time>
      </trkpt>
      <trkpt lat="52.935812" lon="13.069887">
        <ele>47.720000</ele>
        <time>2009-05-19T09:04:28Z</time>
      </trkpt>
      <trkpt lat="52.935547" lon="13.070604">
        <ele>46.760000</ele>
        <time>2009-05-19T09:04:42Z</time>
      </trkpt>
      <trkpt lat="52.935179" lon="13.071159">
        <ele>47.240000</ele>
        <time>2009-05-19T09:04:58Z</time>
      </trkpt>
      <trkpt lat="52.935120" lon="13.071241">
        <ele>47.720000</ele>
        <time>2009-05-19T09:05:02Z</time>
      </trkpt>
      <trkpt lat="52.935027" lon="13.071400">
        <ele>47.720000</ele>
        <time>2009-05-19T09:05:08Z</time>
      </trkpt>
      <trkpt lat="52.934717" lon="13.071887">
        <ele>47.240000</ele>
        <time>2009-05-19T09:05:23Z</time>
      </trkpt>
      <trkpt lat="52.934377" lon="13.072394">
        <ele>47.240000</ele>
        <time>2009-05-19T09:05:35Z</time>
      </trkpt>
      <trkpt lat="52.934274" lon="13.072535">
        <ele>46.760000</ele>
        <time>2009-05-19T09:05:38Z</time>
      </trkpt>
      <trkpt lat="52.933664" lon="13.072952">
        <ele>45.800000</ele>
        <time>2009-05-19T09:05:53Z</time>
      </trkpt>
      <trkpt lat="52.933157" lon="13.073001">
        <ele>45.800000</ele>
        <time>2009-05-19T09:06:08Z</time>
      </trkpt>
      <trkpt lat="52.933081" lon="13.073047">
        <ele>45.800000</ele>
        <time>2009-05-19T09:06:10Z</time>
      </trkpt>
      <trkpt lat="52.932480" lon="13.073457">
        <ele>44.840000</ele>
        <time>2009-05-19T09:06:26Z</time>
      </trkpt>
      <trkpt lat="52.931929" lon="13.073752">
        <ele>45.320000</ele>
        <time>2009-05-19T09:06:42Z</time>
      </trkpt>
      <trkpt lat="52.931642" lon="13.073768">
        <ele>44.840000</ele>
        <time>2009-05-19T09:06:49Z</time>
      </trkpt>
      <trkpt lat="52.931503" lon="13.073740">
        <ele>44.840000</ele>
        <time>2009-05-19T09:06:53Z</time>
      </trkpt>
      <trkpt lat="52.930898" lon="13.073574">
        <ele>43.880000</ele>
        <time>2009-05-19T09:07:06Z</time>
      </trkpt>
      <trkpt lat="52.930391" lon="13.073544">
        <ele>44.840000</ele>
        <time>2009-05-19T09:07:20Z</time>
      </trkpt>
      <trkpt lat="52.929952" lon="13.073520">
        <ele>46.280000</ele>
        <time>2009-05-19T09:07:35Z</time>
      </trkpt>
      <trkpt lat="52.929742" lon="13.073556">
        <ele>46.760000</ele>
        <time>2009-05-19T09:07:45Z</time>
      </trkpt>
      <trkpt lat="52.929699" lon="13.073606">
        <ele>47.240000</ele>
        <time>2009-05-19T09:07:56Z</time>
      </trkpt>
      <trkpt lat="52.929702" lon="13.073609">
        <ele>46.760000</ele>
        <time>2009-05-19T09:08:22Z</time>
      </trkpt>
      <trkpt lat="52.929715" lon="13.073610">
        <ele>46.760000</ele>
        <time>2009-05-19T09:12:00Z</time>
      </trkpt>
      <trkpt lat="52.929719" lon="13.073606">
        <ele>46.760000</ele>
        <time>2009-05-19T09:13:15Z</time>
      </trkpt>
      <trkpt lat="52.929710" lon="13.073608">
        <ele>46.280000</ele>
        <time>2009-05-19T09:14:18Z</time>
      </trkpt>
      <trkpt lat="52.929711" lon="13.073609">
        <ele>46.760000</ele>
        <time>2009-05-19T09:15:02Z</time>
      </trkpt>
      <trkpt lat="52.929728" lon="13.073628">
        <ele>46.760000</ele>
        <time>2009-05-19T09:16:04Z</time>
      </trkpt>
      <trkpt lat="52.929717" lon="13.073849">
        <ele>46.280000</ele>
        <time>2009-05-19T09:16:11Z</time>
      </trkpt>
      <trkpt lat="52.929731" lon="13.074759">
        <ele>44.360000</ele>
        <time>2009-05-19T09:16:25Z</time>
      </trkpt>
      <trkpt lat="52.929823" lon="13.075494">
        <ele>45.800000</ele>
        <time>2009-05-19T09:16:40Z</time>
      </trkpt>
      <trkpt lat="52.929962" lon="13.076457">
        <ele>46.760000</ele>
        <time>2009-05-19T09:17:00Z</time>
      </trkpt>
      <trkpt lat="52.930122" lon="13.077393">
        <ele>48.200000</ele>
        <time>2009-05-19T09:17:19Z</time>
      </trkpt>
      <trkpt lat="52.930243" lon="13.078240">
        <ele>48.680000</ele>
        <time>2009-05-19T09:17:37Z</time>
      </trkpt>
      <trkpt lat="52.930382" lon="13.079226">
        <ele>48.680000</ele>
        <time>2009-05-19T09:17:56Z</time>
      </trkpt>
      <trkpt lat="52.930491" lon="13.079985">
        <ele>49.160000</ele>
        <time>2009-05-19T09:18:11Z</time>
      </trkpt>
      <trkpt lat="52.930617" lon="13.080844">
        <ele>48.680000</ele>
        <time>2009-05-19T09:18:27Z</time>
      </trkpt>
      <trkpt lat="52.930753" lon="13.081741">
        <ele>49.160000</ele>
        <time>2009-05-19T09:18:43Z</time>
      </trkpt>
      <trkpt lat="52.930897" lon="13.082674">
        <ele>49.650000</ele>
        <time>2009-05-19T09:19:01Z</time>
      </trkpt>
      <trkpt lat="52.931048" lon="13.083731">
        <ele>49.160000</ele>
        <time>2009-05-19T09:19:18Z</time>
      </trkpt>
      <trkpt lat="52.931184" lon="13.084704">
        <ele>49.650000</ele>
        <time>2009-05-19T09:19:35Z</time>
      </trkpt>
      <trkpt lat="52.931322" lon="13.085655">
        <ele>51.090000</ele>
        <time>2009-05-19T09:19:54Z</time>
      </trkpt>
      <trkpt lat="52.931454" lon="13.086585">
        <ele>49.650000</ele>
        <time>2009-05-19T09:20:10Z</time>
      </trkpt>
      <trkpt lat="52.931560" lon="13.087318">
        <ele>48.200000</ele>
        <time>2009-05-19T09:20:18Z</time>
      </trkpt>
      <trkpt lat="52.931728" lon="13.088391">
        <ele>47.720000</ele>
        <time>2009-05-19T09:20:31Z</time>
      </trkpt>
      <trkpt lat="52.931875" lon="13.089343">
        <ele>48.200000</ele>
        <time>2009-05-19T09:20:46Z</time>
      </trkpt>
      <trkpt lat="52.931989" lon="13.090123">
        <ele>50.130000</ele>
        <time>2009-05-19T09:21:02Z</time>
      </trkpt>
      <trkpt lat="52.932148" lon="13.091214">
        <ele>49.160000</ele>
        <time>2009-05-19T09:21:20Z</time>
      </trkpt>
      <trkpt lat="52.932338" lon="13.092460">
        <ele>48.680000</ele>
        <time>2009-05-19T09:21:39Z</time>
      </trkpt>
      <trkpt lat="52.932507" lon="13.093660">
        <ele>48.680000</ele>
        <time>2009-05-19T09:21:58Z</time>
      </trkpt>
      <trkpt lat="52.932682" lon="13.094844">
        <ele>49.160000</ele>
        <time>2009-05-19T09:22:18Z</time>
      </trkpt>
      <trkpt lat="52.932828" lon="13.095833">
        <ele>50.610000</ele>
        <time>2009-05-19T09:22:37Z</time>
      </trkpt>
      <trkpt lat="52.932925" lon="13.096580">
        <ele>52.050000</ele>
        <time>2009-05-19T09:22:53Z</time>
      </trkpt>
      <trkpt lat="52.933019" lon="13.097277">
        <ele>53.010000</ele>
        <time>2009-05-19T09:23:08Z</time>
      </trkpt>
      <trkpt lat="52.933184" lon="13.098271">
        <ele>53.010000</ele>
        <time>2009-05-19T09:23:26Z</time>
      </trkpt>
      <trkpt lat="52.933278" lon="13.099014">
        <ele>53.010000</ele>
        <time>2009-05-19T09:23:41Z</time>
      </trkpt>
      <trkpt lat="52.933426" lon="13.100018">
        <ele>52.050000</ele>
        <time>2009-05-19T09:24:00Z</time>
      </trkpt>
      <trkpt lat="52.933524" lon="13.100753">
        <ele>51.570000</ele>
        <time>2009-05-19T09:24:15Z</time>
      </trkpt>
      <trkpt lat="52.933596" lon="13.101117">
        <ele>50.610000</ele>
        <time>2009-05-19T09:24:27Z</time>
      </trkpt>
      <trkpt lat="52.933651" lon="13.101189">
        <ele>50.610000</ele>
        <time>2009-05-19T09:24:33Z</time>
      </trkpt>
      <trkpt lat="52.933894" lon="13.101212">
        <ele>50.610000</ele>
        <time>2009-05-19T09:24:46Z</time>
      </trkpt>
      <trkpt lat="52.934304" lon="13.101189">
        <ele>51.090000</ele>
        <time>2009-05-19T09:25:02Z</time>
      </trkpt>
      <trkpt lat="52.934707" lon="13.101216">
        <ele>51.570000</ele>
        <time>2009-05-19T09:25:16Z</time>
      </trkpt>
      <trkpt lat="52.935081" lon="13.101265">
        <ele>51.570000</ele>
        <time>2009-05-19T09:25:29Z</time>
      </trkpt>
      <trkpt lat="52.935471" lon="13.101248">
        <ele>51.570000</ele>
        <time>2009-05-19T09:25:41Z</time>
      </trkpt>
      <trkpt lat="52.936124" lon="13.101321">
        <ele>51.570000</ele>
        <time>2009-05-19T09:26:00Z</time>
      </trkpt>
      <trkpt lat="52.936718" lon="13.101325">
        <ele>49.650000</ele>
        <time>2009-05-19T09:26:18Z</time>
      </trkpt>
      <trkpt lat="52.937129" lon="13.101390">
        <ele>49.160000</ele>
        <time>2009-05-19T09:26:29Z</time>
      </trkpt>
      <trkpt lat="52.937544" lon="13.101387">
        <ele>49.650000</ele>
        <time>2009-05-19T09:26:44Z</time>
      </trkpt>
      <trkpt lat="52.937978" lon="13.101387">
        <ele>48.680000</ele>
        <time>2009-05-19T09:26:58Z</time>
      </trkpt>
      <trkpt lat="52.938486" lon="13.101415">
        <ele>48.680000</ele>
        <time>2009-05-19T09:27:14Z</time>
      </trkpt>
      <trkpt lat="52.939022" lon="13.101453">
        <ele>48.680000</ele>
        <time>2009-05-19T09:27:29Z</time>
      </trkpt>
      <trkpt lat="52.939685" lon="13.101485">
        <ele>48.200000</ele>
        <time>2009-05-19T09:27:48Z</time>
      </trkpt>
      <trkpt lat="52.939899" lon="13.101501">
        <ele>49.650000</ele>
        <time>2009-05-19T09:27:54Z</time>
      </trkpt>
      <trkpt lat="52.940585" lon="13.101555">
        <ele>48.680000</ele>
        <time>2009-05-19T09:28:13Z</time>
      </trkpt>
      <trkpt lat="52.940652" lon="13.101557">
        <ele>48.680000</ele>
        <time>2009-05-19T09:28:15Z</time>
      </trkpt>
      <trkpt lat="52.940885" lon="13.101551">
        <ele>48.680000</ele>
        <time>2009-05-19T09:28:21Z</time>
      </trkpt>
      <trkpt lat="52.941373" lon="13.101443">
        <ele>48.680000</ele>
        <time>2009-05-19T09:28:34Z</time>
      </trkpt>
      <trkpt lat="52.941894" lon="13.101031">
        <ele>48.680000</ele>
        <time>2009-05-19T09:28:50Z</time>
      </trkpt>
      <trkpt lat="52.942342" lon="13.100631">
        <ele>48.680000</ele>
        <time>2009-05-19T09:29:04Z</time>
      </trkpt>
      <trkpt lat="52.942839" lon="13.100146">
        <ele>49.160000</ele>
        <time>2009-05-19T09:29:20Z</time>
      </trkpt>
      <trkpt lat="52.943226" lon="13.099775">
        <ele>49.650000</ele>
        <time>2009-05-19T09:29:32Z</time>
      </trkpt>
      <trkpt lat="52.943786" lon="13.099252">
        <ele>50.130000</ele>
        <time>2009-05-19T09:29:50Z</time>
      </trkpt>
      <trkpt lat="52.944129" lon="13.098950">
        <ele>49.650000</ele>
        <time>2009-05-19T09:30:01Z</time>
      </trkpt>
      <trkpt lat="52.944648" lon="13.098407">
        <ele>48.680000</ele>
        <time>2009-05-19T09:30:17Z</time>
      </trkpt>
      <trkpt lat="52.945191" lon="13.097934">
        <ele>49.160000</ele>
        <time>2009-05-19T09:30:33Z</time>
      </trkpt>
      <trkpt lat="52.945693" lon="13.097480">
        <ele>48.680000</ele>
        <time>2009-05-19T09:30:48Z</time>
      </trkpt>
      <trkpt lat="52.946127" lon="13.097340">
        <ele>48.200000</ele>
        <time>2009-05-19T09:31:02Z</time>
      </trkpt>
      <trkpt lat="52.946581" lon="13.097322">
        <ele>47.240000</ele>
        <time>2009-05-19T09:31:16Z</time>
      </trkpt>
      <trkpt lat="52.947139" lon="13.097355">
        <ele>47.720000</ele>
        <time>2009-05-19T09:31:31Z</time>
      </trkpt>
      <trkpt lat="52.947673" lon="13.097373">
        <ele>47.720000</ele>
        <time>2009-05-19T09:31:46Z</time>
      </trkpt>
      <trkpt lat="52.948099" lon="13.097414">
        <ele>47.720000</ele>
        <time>2009-05-19T09:31:58Z</time>
      </trkpt>
      <trkpt lat="52.948560" lon="13.097433">
        <ele>47.720000</ele>
        <time>2009-05-19T09:32:11Z</time>
      </trkpt>
      <trkpt lat="52.949096" lon="13.097426">
        <ele>48.680000</ele>
        <time>2009-05-19T09:32:26Z</time>
      </trkpt>
      <trkpt lat="52.949723" lon="13.097456">
        <ele>47.240000</ele>
        <time>2009-05-19T09:32:43Z</time>
      </trkpt>
      <trkpt lat="52.950189" lon="13.097455">
        <ele>47.240000</ele>
        <time>2009-05-19T09:32:56Z</time>
      </trkpt>
      <trkpt lat="52.950602" lon="13.097492">
        <ele>46.760000</ele>
        <time>2009-05-19T09:33:08Z</time>
      </trkpt>
      <trkpt lat="52.951093" lon="13.097509">
        <ele>47.240000</ele>
        <time>2009-05-19T09:33:21Z</time>
      </trkpt>
      <trkpt lat="52.951660" lon="13.097515">
        <ele>47.720000</ele>
        <time>2009-05-19T09:33:37Z</time>
      </trkpt>
      <trkpt lat="52.952090" lon="13.097519">
        <ele>48.200000</ele>
        <time>2009-05-19T09:33:49Z</time>
      </trkpt>
      <trkpt lat="52.952445" lon="13.097513">
        <ele>47.720000</ele>
        <time>2009-05-19T09:34:00Z</time>
      </trkpt>
      <trkpt lat="52.952842" lon="13.097536">
        <ele>47.720000</ele>
        <time>2009-05-19T09:34:13Z</time>
      </trkpt>
      <trkpt lat="52.952901" lon="13.097535">
        <ele>47.720000</ele>
        <time>2009-05-19T09:34:24Z</time>
      </trkpt>
      <trkpt lat="52.952899" lon="13.097531">
        <ele>47.720000</ele>
        <time>2009-05-19T09:34:48Z</time>
      </trkpt>
      <trkpt lat="52.952946" lon="13.097553">
        <ele>47.240000</ele>
        <time>2009-05-19T09:37:00Z</time>
      </trkpt>
      <trkpt lat="52.952983" lon="13.097542">
        <ele>47.240000</ele>
        <time>2009-05-19T09:37:04Z</time>
      </trkpt>
      <trkpt lat="52.953130" lon="13.097548">
        <ele>47.240000</ele>
        <time>2009-05-19T09:37:12Z</time>
      </trkpt>
      <trkpt lat="52.953515" lon="13.097567">
        <ele>46.280000</ele>
        <time>2009-05-19T09:37:25Z</time>
      </trkpt>
      <trkpt lat="52.953867" lon="13.097582">
        <ele>46.280000</ele>
        <time>2009-05-19T09:37:37Z</time>
      </trkpt>
      <trkpt lat="52.954181" lon="13.097573">
        <ele>45.800000</ele>
        <time>2009-05-19T09:37:47Z</time>
      </trkpt>
      <trkpt lat="52.954477" lon="13.097571">
        <ele>46.280000</ele>
        <time>2009-05-19T09:37:56Z</time>
      </trkpt>
      <trkpt lat="52.954774" lon="13.097576">
        <ele>45.800000</ele>
        <time>2009-05-19T09:38:05Z</time>
      </trkpt>
      <trkpt lat="52.954804" lon="13.097574">
        <ele>45.800000</ele>
        <time>2009-05-19T09:38:06Z</time>
      </trkpt>
      <trkpt lat="52.955079" lon="13.097596">
        <ele>45.800000</ele>
        <time>2009-05-19T09:38:15Z</time>
      </trkpt>
      <trkpt lat="52.955184" lon="13.097578">
        <ele>47.240000</ele>
        <time>2009-05-19T09:38:19Z</time>
      </trkpt>
      <trkpt lat="52.955458" lon="13.097578">
        <ele>48.200000</ele>
        <time>2009-05-19T09:38:30Z</time>
      </trkpt>
      <trkpt lat="52.955823" lon="13.097615">
        <ele>47.720000</ele>
        <time>2009-05-19T09:38:42Z</time>
      </trkpt>
      <trkpt lat="52.956066" lon="13.097628">
        <ele>47.720000</ele>
        <time>2009-05-19T09:38:48Z</time>
      </trkpt>
      <trkpt lat="52.956274" lon="13.097644">
        <ele>46.760000</ele>
        <time>2009-05-19T09:38:53Z</time>
      </trkpt>
      <trkpt lat="52.956606" lon="13.097671">
        <ele>47.240000</ele>
        <time>2009-05-19T09:39:03Z</time>
      </trkpt>
      <trkpt lat="52.956884" lon="13.097674">
        <ele>47.720000</ele>
        <time>2009-05-19T09:39:13Z</time>
      </trkpt>
      <trkpt lat="52.957192" lon="13.097692">
        <ele>48.680000</ele>
        <time>2009-05-19T09:39:24Z</time>
      </trkpt>
      <trkpt lat="52.957612" lon="13.097712">
        <ele>49.650000</ele>
        <time>2009-05-19T09:39:36Z</time>
      </trkpt>
      <trkpt lat="52.957886" lon="13.097754">
        <ele>50.130000</ele>
        <time>2009-05-19T09:39:47Z</time>
      </trkpt>
      <trkpt lat="52.958157" lon="13.097750">
        <ele>51.090000</ele>
        <time>2009-05-19T09:39:58Z</time>
      </trkpt>
      <trkpt lat="52.958466" lon="13.097749">
        <ele>52.050000</ele>
        <time>2009-05-19T09:40:10Z</time>
      </trkpt>
      <trkpt lat="52.958798" lon="13.097763">
        <ele>52.530000</ele>
        <time>2009-05-19T09:40:23Z</time>
      </trkpt>
      <trkpt lat="52.959106" lon="13.097749">
        <ele>52.530000</ele>
        <time>2009-05-19T09:40:33Z</time>
      </trkpt>
      <trkpt lat="52.959428" lon="13.097734">
        <ele>52.050000</ele>
        <time>2009-05-19T09:40:43Z</time>
      </trkpt>
      <trkpt lat="52.959754" lon="13.097754">
        <ele>52.050000</ele>
        <time>2009-05-19T09:40:53Z</time>
      </trkpt>
      <trkpt lat="52.960218" lon="13.097823">
        <ele>52.050000</ele>
        <time>2009-05-19T09:41:07Z</time>
      </trkpt>
      <trkpt lat="52.960425" lon="13.097799">
        <ele>53.010000</ele>
        <time>2009-05-19T09:41:15Z</time>
      </trkpt>
      <trkpt lat="52.960400" lon="13.097782">
        <ele>53.010000</ele>
        <time>2009-05-19T09:41:23Z</time>
      </trkpt>
      <trkpt lat="52.960319" lon="13.097806">
        <ele>52.530000</ele>
        <time>2009-05-19T09:41:27Z</time>
      </trkpt>
      <trkpt lat="52.960285" lon="13.097836">
        <ele>52.530000</ele>
        <time>2009-05-19T09:41:37Z</time>
      </trkpt>
      <trkpt lat="52.960287" lon="13.097836">
        <ele>52.530000</ele>
        <time>2009-05-19T09:42:31Z</time>
      </trkpt>
      <trkpt lat="52.960299" lon="13.097832">
        <ele>52.530000</ele>
        <time>2009-05-19T09:42:57Z</time>
      </trkpt>
      <trkpt lat="52.960322" lon="13.097803">
        <ele>52.530000</ele>
        <time>2009-05-19T09:43:00Z</time>
      </trkpt>
      <trkpt lat="52.960500" lon="13.097829">
        <ele>53.010000</ele>
        <time>2009-05-19T09:43:07Z</time>
      </trkpt>
      <trkpt lat="52.960870" lon="13.097814">
        <ele>51.090000</ele>
        <time>2009-05-19T09:43:20Z</time>
      </trkpt>
      <trkpt lat="52.961257" lon="13.097838">
        <ele>51.090000</ele>
        <time>2009-05-19T09:43:32Z</time>
      </trkpt>
      <trkpt lat="52.961400" lon="13.097827">
        <ele>51.090000</ele>
        <time>2009-05-19T09:43:37Z</time>
      </trkpt>
      <trkpt lat="52.961787" lon="13.097833">
        <ele>51.090000</ele>
        <time>2009-05-19T09:43:48Z</time>
      </trkpt>
      <trkpt lat="52.962241" lon="13.097849">
        <ele>52.050000</ele>
        <time>2009-05-19T09:44:02Z</time>
      </trkpt>
      <trkpt lat="52.962533" lon="13.097844">
        <ele>52.050000</ele>
        <time>2009-05-19T09:44:13Z</time>
      </trkpt>
      <trkpt lat="52.962745" lon="13.097861">
        <ele>53.970000</ele>
        <time>2009-05-19T09:44:20Z</time>
      </trkpt>
      <trkpt lat="52.963149" lon="13.097896">
        <ele>54.930000</ele>
        <time>2009-05-19T09:44:35Z</time>
      </trkpt>
      <trkpt lat="52.963433" lon="13.097916">
        <ele>55.890000</ele>
        <time>2009-05-19T09:44:45Z</time>
      </trkpt>
      <trkpt lat="52.963804" lon="13.097930">
        <ele>56.370000</ele>
        <time>2009-05-19T09:44:59Z</time>
      </trkpt>
      <trkpt lat="52.964254" lon="13.097937">
        <ele>56.370000</ele>
        <time>2009-05-19T09:45:14Z</time>
      </trkpt>
      <trkpt lat="52.964566" lon="13.097921">
        <ele>56.370000</ele>
        <time>2009-05-19T09:45:25Z</time>
      </trkpt>
      <trkpt lat="52.964983" lon="13.097937">
        <ele>56.370000</ele>
        <time>2009-05-19T09:45:39Z</time>
      </trkpt>
      <trkpt lat="52.965350" lon="13.097961">
        <ele>55.890000</ele>
        <time>2009-05-19T09:45:51Z</time>
      </trkpt>
      <trkpt lat="52.965793" lon="13.097986">
        <ele>55.410000</ele>
        <time>2009-05-19T09:46:05Z</time>
      </trkpt>
      <trkpt lat="52.966202" lon="13.097999">
        <ele>55.410000</ele>
        <time>2009-05-19T09:46:20Z</time>
      </trkpt>
      <trkpt lat="52.966547" lon="13.097997">
        <ele>55.890000</ele>
        <time>2009-05-19T09:46:32Z</time>
      </trkpt>
      <trkpt lat="52.966923" lon="13.098200">
        <ele>55.410000</ele>
        <time>2009-05-19T09:46:45Z</time>
      </trkpt>
      <trkpt lat="52.967310" lon="13.098450">
        <ele>55.410000</ele>
        <time>2009-05-19T09:46:58Z</time>
      </trkpt>
      <trkpt lat="52.967709" lon="13.098716">
        <ele>54.930000</ele>
        <time>2009-05-19T09:47:11Z</time>
      </trkpt>
      <trkpt lat="52.968104" lon="13.098969">
        <ele>53.970000</ele>
        <time>2009-05-19T09:47:24Z</time>
      </trkpt>
      <trkpt lat="52.968540" lon="13.099250">
        <ele>53.970000</ele>
        <time>2009-05-19T09:47:38Z</time>
      </trkpt>
      <trkpt lat="52.968995" lon="13.099540">
        <ele>53.490000</ele>
        <time>2009-05-19T09:47:52Z</time>
      </trkpt>
      <trkpt lat="52.969487" lon="13.099866">
        <ele>53.010000</ele>
        <time>2009-05-19T09:48:08Z</time>
      </trkpt>
      <trkpt lat="52.970018" lon="13.100195">
        <ele>51.570000</ele>
        <time>2009-05-19T09:48:25Z</time>
      </trkpt>
      <trkpt lat="52.970470" lon="13.100692">
        <ele>50.130000</ele>
        <time>2009-05-19T09:48:41Z</time>
      </trkpt>
      <trkpt lat="52.970848" lon="13.101772">
        <ele>48.680000</ele>
        <time>2009-05-19T09:48:59Z</time>
      </trkpt>
      <trkpt lat="52.971127" lon="13.102543">
        <ele>48.680000</ele>
        <time>2009-05-19T09:49:15Z</time>
      </trkpt>
      <trkpt lat="52.971284" lon="13.102708">
        <ele>48.680000</ele>
        <time>2009-05-19T09:49:25Z</time>
      </trkpt>
      <trkpt lat="52.971542" lon="13.102350">
        <ele>48.680000</ele>
        <time>2009-05-19T09:49:39Z</time>
      </trkpt>
      <trkpt lat="52.971827" lon="13.102450">
        <ele>48.680000</ele>
        <time>2009-05-19T09:49:50Z</time>
      </trkpt>
      <trkpt lat="52.972161" lon="13.102503">
        <ele>48.200000</ele>
        <time>2009-05-19T09:50:03Z</time>
      </trkpt>
      <trkpt lat="52.972588" lon="13.102425">
        <ele>46.760000</ele>
        <time>2009-05-19T09:50:17Z</time>
      </trkpt>
      <trkpt lat="52.972969" lon="13.102767">
        <ele>45.800000</ele>
        <time>2009-05-19T09:50:28Z</time>
      </trkpt>
      <trkpt lat="52.973381" lon="13.103479">
        <ele>44.840000</ele>
        <time>2009-05-19T09:50:40Z</time>
      </trkpt>
      <trkpt lat="52.973603" lon="13.103895">
        <ele>46.280000</ele>
        <time>2009-05-19T09:50:52Z</time>
      </trkpt>
      <trkpt lat="52.973717" lon="13.104081">
        <ele>47.720000</ele>
        <time>2009-05-19T09:51:02Z</time>
      </trkpt>
      <trkpt lat="52.973771" lon="13.104173">
        <ele>47.720000</ele>
        <time>2009-05-19T09:51:08Z</time>
      </trkpt>
      <trkpt lat="52.973938" lon="13.104434">
        <ele>49.160000</ele>
        <time>2009-05-19T09:51:21Z</time>
      </trkpt>
      <trkpt lat="52.974027" lon="13.104503">
        <ele>49.650000</ele>
        <time>2009-05-19T09:51:27Z</time>
      </trkpt>
      <trkpt lat="52.974259" lon="13.104892">
        <ele>51.570000</ele>
        <time>2009-05-19T09:51:44Z</time>
      </trkpt>
      <trkpt lat="52.974457" lon="13.105230">
        <ele>53.010000</ele>
        <time>2009-05-19T09:51:59Z</time>
      </trkpt>
      <trkpt lat="52.974637" lon="13.105556">
        <ele>53.970000</ele>
        <time>2009-05-19T09:52:12Z</time>
      </trkpt>
      <trkpt lat="52.974883" lon="13.105930">
        <ele>55.410000</ele>
        <time>2009-05-19T09:52:27Z</time>
      </trkpt>
      <trkpt lat="52.975143" lon="13.106358">
        <ele>56.370000</ele>
        <time>2009-05-19T09:52:43Z</time>
      </trkpt>
      <trkpt lat="52.975364" lon="13.106785">
        <ele>56.860000</ele>
        <time>2009-05-19T09:52:58Z</time>
      </trkpt>
      <trkpt lat="52.975572" lon="13.107138">
        <ele>58.300000</ele>
        <time>2009-05-19T09:53:13Z</time>
      </trkpt>
      <trkpt lat="52.975821" lon="13.107342">
        <ele>59.260000</ele>
        <time>2009-05-19T09:53:25Z</time>
      </trkpt>
      <trkpt lat="52.976051" lon="13.107511">
        <ele>60.220000</ele>
        <time>2009-05-19T09:53:37Z</time>
      </trkpt>
      <trkpt lat="52.976438" lon="13.107755">
        <ele>60.700000</ele>
        <time>2009-05-19T09:53:54Z</time>
      </trkpt>
      <trkpt lat="52.976755" lon="13.107957">
        <ele>61.180000</ele>
        <time>2009-05-19T09:54:08Z</time>
      </trkpt>
      <trkpt lat="52.977056" lon="13.108148">
        <ele>62.620000</ele>
        <time>2009-05-19T09:54:21Z</time>
      </trkpt>
      <trkpt lat="52.977342" lon="13.108296">
        <ele>62.140000</ele>
        <time>2009-05-19T09:54:33Z</time>
      </trkpt>
      <trkpt lat="52.977527" lon="13.108427">
        <ele>61.180000</ele>
        <time>2009-05-19T09:54:38Z</time>
      </trkpt>
      <trkpt lat="52.978221" lon="13.108859">
        <ele>58.300000</ele>
        <time>2009-05-19T09:54:51Z</time>
      </trkpt>
      <trkpt lat="52.978937" lon="13.109373">
        <ele>56.370000</ele>
        <time>2009-05-19T09:55:04Z</time>
      </trkpt>
      <trkpt lat="52.979322" lon="13.109667">
        <ele>57.340000</ele>
        <time>2009-05-19T09:55:16Z</time>
      </trkpt>
      <trkpt lat="52.979561" lon="13.109826">
        <ele>59.740000</ele>
        <time>2009-05-19T09:55:27Z</time>
      </trkpt>
      <trkpt lat="52.979821" lon="13.110024">
        <ele>59.740000</ele>
        <time>2009-05-19T09:55:41Z</time>
      </trkpt>
      <trkpt lat="52.979841" lon="13.110045">
        <ele>59.740000</ele>
        <time>2009-05-19T09:55:43Z</time>
      </trkpt>
      <trkpt lat="52.980204" lon="13.110302">
        <ele>58.780000</ele>
        <time>2009-05-19T09:55:55Z</time>
      </trkpt>
      <trkpt lat="52.980331" lon="13.110394">
        <ele>58.300000</ele>
        <time>2009-05-19T09:55:58Z</time>
      </trkpt>
      <trkpt lat="52.980452" lon="13.110505">
        <ele>57.820000</ele>
        <time>2009-05-19T09:56:01Z</time>
      </trkpt>
      <trkpt lat="52.981016" lon="13.110936">
        <ele>59.260000</ele>
        <time>2009-05-19T09:56:15Z</time>
      </trkpt>
      <trkpt lat="52.981206" lon="13.111074">
        <ele>59.740000</ele>
        <time>2009-05-19T09:56:27Z</time>
      </trkpt>
      <trkpt lat="52.981489" lon="13.111258">
        <ele>61.180000</ele>
        <time>2009-05-19T09:56:42Z</time>
      </trkpt>
      <trkpt lat="52.981729" lon="13.111407">
        <ele>62.620000</ele>
        <time>2009-05-19T09:56:54Z</time>
      </trkpt>
      <trkpt lat="52.982026" lon="13.111583">
        <ele>63.580000</ele>
        <time>2009-05-19T09:57:10Z</time>
      </trkpt>
      <trkpt lat="52.982307" lon="13.111857">
        <ele>62.620000</ele>
        <time>2009-05-19T09:57:22Z</time>
      </trkpt>
      <trkpt lat="52.982526" lon="13.112154">
        <ele>60.700000</ele>
        <time>2009-05-19T09:57:28Z</time>
      </trkpt>
      <trkpt lat="52.982901" lon="13.112384">
        <ele>57.820000</ele>
        <time>2009-05-19T09:57:34Z</time>
      </trkpt>
      <trkpt lat="52.983537" lon="13.112736">
        <ele>55.410000</ele>
        <time>2009-05-19T09:57:43Z</time>
      </trkpt>
      <trkpt lat="52.983649" lon="13.112773">
        <ele>55.410000</ele>
        <time>2009-05-19T09:57:45Z</time>
      </trkpt>
      <trkpt lat="52.984012" lon="13.112808">
        <ele>54.930000</ele>
        <time>2009-05-19T09:57:52Z</time>
      </trkpt>
      <trkpt lat="52.984431" lon="13.112764">
        <ele>54.930000</ele>
        <time>2009-05-19T09:58:02Z</time>
      </trkpt>
      <trkpt lat="52.984680" lon="13.112749">
        <ele>54.930000</ele>
        <time>2009-05-19T09:58:09Z</time>
      </trkpt>
      <trkpt lat="52.985088" lon="13.112708">
        <ele>54.930000</ele>
        <time>2009-05-19T09:58:20Z</time>
      </trkpt>
      <trkpt lat="52.985388" lon="13.112678">
        <ele>54.930000</ele>
        <time>2009-05-19T09:58:29Z</time>
      </trkpt>
      <trkpt lat="52.985749" lon="13.112721">
        <ele>55.410000</ele>
        <time>2009-05-19T09:58:40Z</time>
      </trkpt>
      <trkpt lat="52.985977" lon="13.112822">
        <ele>55.890000</ele>
        <time>2009-05-19T09:58:47Z</time>
      </trkpt>
      <trkpt lat="52.986237" lon="13.113110">
        <ele>55.890000</ele>
        <time>2009-05-19T09:58:57Z</time>
      </trkpt>
      <trkpt lat="52.986306" lon="13.113232">
        <ele>55.410000</ele>
        <time>2009-05-19T09:59:01Z</time>
      </trkpt>
      <trkpt lat="52.986384" lon="13.113342">
        <ele>54.450000</ele>
        <time>2009-05-19T09:59:05Z</time>
      </trkpt>
      <trkpt lat="52.986635" lon="13.113885">
        <ele>54.450000</ele>
        <time>2009-05-19T09:59:15Z</time>
      </trkpt>
      <trkpt lat="52.986718" lon="13.114318">
        <ele>54.450000</ele>
        <time>2009-05-19T09:59:25Z</time>
      </trkpt>
      <trkpt lat="52.986791" lon="13.114785">
        <ele>54.930000</ele>
        <time>2009-05-19T09:59:34Z</time>
      </trkpt>
      <trkpt lat="52.986849" lon="13.115149">
        <ele>54.450000</ele>
        <time>2009-05-19T09:59:42Z</time>
      </trkpt>
      <trkpt lat="52.986869" lon="13.115648">
        <ele>54.930000</ele>
        <time>2009-05-19T09:59:51Z</time>
      </trkpt>
      <trkpt lat="52.987006" lon="13.116098">
        <ele>54.450000</ele>
        <time>2009-05-19T10:00:01Z</time>
      </trkpt>
      <trkpt lat="52.987139" lon="13.116394">
        <ele>55.410000</ele>
        <time>2009-05-19T10:00:09Z</time>
      </trkpt>
      <trkpt lat="52.987172" lon="13.116452">
        <ele>55.410000</ele>
        <time>2009-05-19T10:00:10Z</time>
      </trkpt>
      <trkpt lat="52.987338" lon="13.116644">
        <ele>56.860000</ele>
        <time>2009-05-19T10:00:19Z</time>
      </trkpt>
      <trkpt lat="52.987555" lon="13.116950">
        <ele>57.340000</ele>
        <time>2009-05-19T10:00:25Z</time>
      </trkpt>
      <trkpt lat="52.987758" lon="13.117403">
        <ele>56.860000</ele>
        <time>2009-05-19T10:00:34Z</time>
      </trkpt>
      <trkpt lat="52.987809" lon="13.117610">
        <ele>56.370000</ele>
        <time>2009-05-19T10:00:39Z</time>
      </trkpt>
      <trkpt lat="52.987863" lon="13.117893">
        <ele>55.890000</ele>
        <time>2009-05-19T10:00:44Z</time>
      </trkpt>
      <trkpt lat="52.987854" lon="13.118102">
        <ele>55.890000</ele>
        <time>2009-05-19T10:00:48Z</time>
      </trkpt>
      <trkpt lat="52.987891" lon="13.118634">
        <ele>55.410000</ele>
        <time>2009-05-19T10:00:56Z</time>
      </trkpt>
      <trkpt lat="52.987888" lon="13.118971">
        <ele>55.890000</ele>
        <time>2009-05-19T10:01:03Z</time>
      </trkpt>
      <trkpt lat="52.987839" lon="13.119573">
        <ele>55.410000</ele>
        <time>2009-05-19T10:01:13Z</time>
      </trkpt>
      <trkpt lat="52.987968" lon="13.120148">
        <ele>55.410000</ele>
        <time>2009-05-19T10:01:23Z</time>
      </trkpt>
      <trkpt lat="52.988074" lon="13.120421">
        <ele>55.890000</ele>
        <time>2009-05-19T10:01:29Z</time>
      </trkpt>
      <trkpt lat="52.988257" lon="13.120761">
        <ele>55.890000</ele>
        <time>2009-05-19T10:01:37Z</time>
      </trkpt>
      <trkpt lat="52.988532" lon="13.121229">
        <ele>56.860000</ele>
        <time>2009-05-19T10:01:48Z</time>
      </trkpt>
      <trkpt lat="52.988743" lon="13.121583">
        <ele>56.860000</ele>
        <time>2009-05-19T10:01:57Z</time>
      </trkpt>
      <trkpt lat="52.988954" lon="13.121924">
        <ele>56.860000</ele>
        <time>2009-05-19T10:02:05Z</time>
      </trkpt>
      <trkpt lat="52.989203" lon="13.122367">
        <ele>56.860000</ele>
        <time>2009-05-19T10:02:14Z</time>
      </trkpt>
      <trkpt lat="52.989460" lon="13.122749">
        <ele>56.370000</ele>
        <time>2009-05-19T10:02:23Z</time>
      </trkpt>
      <trkpt lat="52.989728" lon="13.122976">
        <ele>56.370000</ele>
        <time>2009-05-19T10:02:32Z</time>
      </trkpt>
      <trkpt lat="52.989995" lon="13.123022">
        <ele>56.860000</ele>
        <time>2009-05-19T10:02:41Z</time>
      </trkpt>
      <trkpt lat="52.990021" lon="13.123038">
        <ele>56.860000</ele>
        <time>2009-05-19T10:02:42Z</time>
      </trkpt>
      <trkpt lat="52.990201" lon="13.123081">
        <ele>56.860000</ele>
        <time>2009-05-19T10:02:47Z</time>
      </trkpt>
      <trkpt lat="52.990365" lon="13.123134">
        <ele>53.490000</ele>
        <time>2009-05-19T10:02:53Z</time>
      </trkpt>
      <trkpt lat="52.990419" lon="13.123116">
        <ele>56.370000</ele>
        <time>2009-05-19T10:02:56Z</time>
      </trkpt>
      <trkpt lat="52.990616" lon="13.123234">
        <ele>56.860000</ele>
        <time>2009-05-19T10:03:06Z</time>
      </trkpt>
      <trkpt lat="52.990680" lon="13.123285">
        <ele>56.860000</ele>
        <time>2009-05-19T10:03:09Z</time>
      </trkpt>
      <trkpt lat="52.990817" lon="13.123402">
        <ele>56.370000</ele>
        <time>2009-05-19T10:03:15Z</time>
      </trkpt>
      <trkpt lat="52.990975" lon="13.123532">
        <ele>56.370000</ele>
        <time>2009-05-19T10:03:20Z</time>
      </trkpt>
      <trkpt lat="52.991078" lon="13.123610">
        <ele>56.860000</ele>
        <time>2009-05-19T10:03:24Z</time>
      </trkpt>
      <trkpt lat="52.991265" lon="13.123781">
        <ele>56.860000</ele>
        <time>2009-05-19T10:03:32Z</time>
      </trkpt>
      <trkpt lat="52.991352" lon="13.123862">
        <ele>56.860000</ele>
        <time>2009-05-19T10:03:36Z</time>
      </trkpt>
      <trkpt lat="52.991692" lon="13.124183">
        <ele>57.820000</ele>
        <time>2009-05-19T10:03:47Z</time>
      </trkpt>
      <trkpt lat="52.991828" lon="13.124361">
        <ele>58.780000</ele>
        <time>2009-05-19T10:03:55Z</time>
      </trkpt>
      <trkpt lat="52.991918" lon="13.124477">
        <ele>60.220000</ele>
        <time>2009-05-19T10:04:00Z</time>
      </trkpt>
      <trkpt lat="52.991945" lon="13.124483">
        <ele>60.700000</ele>
        <time>2009-05-19T10:04:02Z</time>
      </trkpt>
      <trkpt lat="52.992174" lon="13.124730">
        <ele>61.660000</ele>
        <time>2009-05-19T10:04:15Z</time>
      </trkpt>
      <trkpt lat="52.992332" lon="13.124867">
        <ele>62.620000</ele>
        <time>2009-05-19T10:04:24Z</time>
      </trkpt>
      <trkpt lat="52.992465" lon="13.125056">
        <ele>63.580000</ele>
        <time>2009-05-19T10:04:32Z</time>
      </trkpt>
      <trkpt lat="52.992518" lon="13.125101">
        <ele>64.550000</ele>
        <time>2009-05-19T10:04:36Z</time>
      </trkpt>
      <trkpt lat="52.992627" lon="13.125305">
        <ele>64.070000</ele>
        <time>2009-05-19T10:04:41Z</time>
      </trkpt>
      <trkpt lat="52.992631" lon="13.125382">
        <ele>63.580000</ele>
        <time>2009-05-19T10:04:43Z</time>
      </trkpt>
      <trkpt lat="52.992685" lon="13.125580">
        <ele>64.550000</ele>
        <time>2009-05-19T10:04:48Z</time>
      </trkpt>
      <trkpt lat="52.992891" lon="13.126148">
        <ele>63.580000</ele>
        <time>2009-05-19T10:04:59Z</time>
      </trkpt>
      <trkpt lat="52.993002" lon="13.126434">
        <ele>63.100000</ele>
        <time>2009-05-19T10:05:04Z</time>
      </trkpt>
      <trkpt lat="52.993185" lon="13.126787">
        <ele>62.140000</ele>
        <time>2009-05-19T10:05:11Z</time>
      </trkpt>
      <trkpt lat="52.993469" lon="13.127263">
        <ele>62.620000</ele>
        <time>2009-05-19T10:05:24Z</time>
      </trkpt>
      <trkpt lat="52.993650" lon="13.127579">
        <ele>63.100000</ele>
        <time>2009-05-19T10:05:34Z</time>
      </trkpt>
      <trkpt lat="52.993710" lon="13.127684">
        <ele>63.100000</ele>
        <time>2009-05-19T10:05:37Z</time>
      </trkpt>
      <trkpt lat="52.993843" lon="13.127894">
        <ele>64.070000</ele>
        <time>2009-05-19T10:05:43Z</time>
      </trkpt>
      <trkpt lat="52.994025" lon="13.128209">
        <ele>65.030000</ele>
        <time>2009-05-19T10:05:54Z</time>
      </trkpt>
      <trkpt lat="52.994184" lon="13.128515">
        <ele>65.990000</ele>
        <time>2009-05-19T10:06:02Z</time>
      </trkpt>
      <trkpt lat="52.994295" lon="13.128870">
        <ele>66.950000</ele>
        <time>2009-05-19T10:06:11Z</time>
      </trkpt>
      <trkpt lat="52.994411" lon="13.129124">
        <ele>66.950000</ele>
        <time>2009-05-19T10:06:18Z</time>
      </trkpt>
      <trkpt lat="52.994487" lon="13.129412">
        <ele>67.430000</ele>
        <time>2009-05-19T10:06:25Z</time>
      </trkpt>
      <trkpt lat="52.994520" lon="13.129489">
        <ele>67.430000</ele>
        <time>2009-05-19T10:06:27Z</time>
      </trkpt>
      <trkpt lat="52.994598" lon="13.129726">
        <ele>68.390000</ele>
        <time>2009-05-19T10:06:33Z</time>
      </trkpt>
      <trkpt lat="52.994608" lon="13.129992">
        <ele>68.870000</ele>
        <time>2009-05-19T10:06:39Z</time>
      </trkpt>
      <trkpt lat="52.994650" lon="13.130214">
        <ele>69.830000</ele>
        <time>2009-05-19T10:06:45Z</time>
      </trkpt>
      <trkpt lat="52.994679" lon="13.130409">
        <ele>70.790000</ele>
        <time>2009-05-19T10:06:56Z</time>
      </trkpt>
      <trkpt lat="52.994704" lon="13.130605">
        <ele>71.270000</ele>
        <time>2009-05-19T10:07:08Z</time>
      </trkpt>
      <trkpt lat="52.994722" lon="13.130802">
        <ele>72.720000</ele>
        <time>2009-05-19T10:07:19Z</time>
      </trkpt>
      <trkpt lat="52.994763" lon="13.130856">
        <ele>72.720000</ele>
        <time>2009-05-19T10:07:24Z</time>
      </trkpt>
      <trkpt lat="52.994836" lon="13.131026">
        <ele>74.160000</ele>
        <time>2009-05-19T10:07:36Z</time>
      </trkpt>
      <trkpt lat="52.994830" lon="13.131119">
        <ele>74.640000</ele>
        <time>2009-05-19T10:07:39Z</time>
      </trkpt>
      <trkpt lat="52.994839" lon="13.131260">
        <ele>75.600000</ele>
        <time>2009-05-19T10:07:47Z</time>
      </trkpt>
      <trkpt lat="52.994823" lon="13.131259">
        <ele>75.600000</ele>
        <time>2009-05-19T10:07:49Z</time>
      </trkpt>
      <trkpt lat="52.994879" lon="13.131489">
        <ele>76.560000</ele>
        <time>2009-05-19T10:07:59Z</time>
      </trkpt>
      <trkpt lat="52.994928" lon="13.131667">
        <ele>76.560000</ele>
        <time>2009-05-19T10:08:09Z</time>
      </trkpt>
      <trkpt lat="52.994949" lon="13.131733">
        <ele>76.560000</ele>
        <time>2009-05-19T10:08:14Z</time>
      </trkpt>
      <trkpt lat="52.995025" lon="13.132127">
        <ele>75.600000</ele>
        <time>2009-05-19T10:08:22Z</time>
      </trkpt>
      <trkpt lat="52.995079" lon="13.132465">
        <ele>74.160000</ele>
        <time>2009-05-19T10:08:26Z</time>
      </trkpt>
      <trkpt lat="52.995234" lon="13.134140">
        <ele>71.270000</ele>
        <time>2009-05-19T10:08:41Z</time>
      </trkpt>
      <trkpt lat="52.995331" lon="13.135291">
        <ele>69.350000</ele>
        <time>2009-05-19T10:08:51Z</time>
      </trkpt>
      <trkpt lat="52.995481" lon="13.137078">
        <ele>67.910000</ele>
        <time>2009-05-19T10:09:09Z</time>
      </trkpt>
      <trkpt lat="52.995567" lon="13.137906">
        <ele>68.390000</ele>
        <time>2009-05-19T10:09:23Z</time>
      </trkpt>
      <trkpt lat="52.995632" lon="13.138743">
        <ele>68.870000</ele>
        <time>2009-05-19T10:09:40Z</time>
      </trkpt>
      <trkpt lat="52.995700" lon="13.139337">
        <ele>70.310000</ele>
        <time>2009-05-19T10:09:54Z</time>
      </trkpt>
      <trkpt lat="52.995777" lon="13.140084">
        <ele>71.760000</ele>
        <time>2009-05-19T10:10:11Z</time>
      </trkpt>
      <trkpt lat="52.995850" lon="13.140596">
        <ele>72.240000</ele>
        <time>2009-05-19T10:10:25Z</time>
      </trkpt>
      <trkpt lat="52.996047" lon="13.141059">
        <ele>73.680000</ele>
        <time>2009-05-19T10:10:39Z</time>
      </trkpt>
      <trkpt lat="52.996283" lon="13.141655">
        <ele>74.640000</ele>
        <time>2009-05-19T10:10:55Z</time>
      </trkpt>
      <trkpt lat="52.996516" lon="13.142256">
        <ele>75.120000</ele>
        <time>2009-05-19T10:11:10Z</time>
      </trkpt>
      <trkpt lat="52.996745" lon="13.142837">
        <ele>74.640000</ele>
        <time>2009-05-19T10:11:25Z</time>
      </trkpt>
      <trkpt lat="52.997019" lon="13.143511">
        <ele>74.640000</ele>
        <time>2009-05-19T10:11:41Z</time>
      </trkpt>
      <trkpt lat="52.997281" lon="13.144175">
        <ele>74.640000</ele>
        <time>2009-05-19T10:11:56Z</time>
      </trkpt>
      <trkpt lat="52.997566" lon="13.144881">
        <ele>74.640000</ele>
        <time>2009-05-19T10:12:13Z</time>
      </trkpt>
      <trkpt lat="52.997780" lon="13.145402">
        <ele>73.200000</ele>
        <time>2009-05-19T10:12:25Z</time>
      </trkpt>
      <trkpt lat="52.998055" lon="13.146087">
        <ele>72.720000</ele>
        <time>2009-05-19T10:12:43Z</time>
      </trkpt>
      <trkpt lat="52.998260" lon="13.146652">
        <ele>72.720000</ele>
        <time>2009-05-19T10:12:58Z</time>
      </trkpt>
      <trkpt lat="52.998498" lon="13.147249">
        <ele>71.270000</ele>
        <time>2009-05-19T10:13:13Z</time>
      </trkpt>
      <trkpt lat="52.998894" lon="13.148133">
        <ele>69.830000</ele>
        <time>2009-05-19T10:13:29Z</time>
      </trkpt>
      <trkpt lat="52.998978" lon="13.148298">
        <ele>68.870000</ele>
        <time>2009-05-19T10:13:32Z</time>
      </trkpt>
      <trkpt lat="52.999490" lon="13.149359">
        <ele>65.510000</ele>
        <time>2009-05-19T10:13:48Z</time>
      </trkpt>
      <trkpt lat="52.999994" lon="13.150354">
        <ele>62.620000</ele>
        <time>2009-05-19T10:14:02Z</time>
      </trkpt>
      <trkpt lat="53.000698" lon="13.151461">
        <ele>59.740000</ele>
        <time>2009-05-19T10:14:19Z</time>
      </trkpt>
      <trkpt lat="53.001207" lon="13.152120">
        <ele>58.300000</ele>
        <time>2009-05-19T10:14:30Z</time>
      </trkpt>
      <trkpt lat="53.001813" lon="13.152966">
        <ele>55.890000</ele>
        <time>2009-05-19T10:14:47Z</time>
      </trkpt>
      <trkpt lat="53.002034" lon="13.153327">
        <ele>54.930000</ele>
        <time>2009-05-19T10:14:58Z</time>
      </trkpt>
      <trkpt lat="53.002059" lon="13.153418">
        <ele>54.930000</ele>
        <time>2009-05-19T10:15:08Z</time>
      </trkpt>
      <trkpt lat="53.002062" lon="13.153434">
        <ele>54.450000</ele>
        <time>2009-05-19T10:15:13Z</time>
      </trkpt>
      <trkpt lat="53.002040" lon="13.153517">
        <ele>54.450000</ele>
        <time>2009-05-19T10:15:17Z</time>
      </trkpt>
      <trkpt lat="53.001693" lon="13.153667">
        <ele>54.930000</ele>
        <time>2009-05-19T10:15:32Z</time>
      </trkpt>
      <trkpt lat="53.001660" lon="13.153698">
        <ele>54.930000</ele>
        <time>2009-05-19T10:15:34Z</time>
      </trkpt>
      <trkpt lat="53.001633" lon="13.153842">
        <ele>54.930000</ele>
        <time>2009-05-19T10:15:46Z</time>
      </trkpt>
      <trkpt lat="53.001590" lon="13.153912">
        <ele>55.410000</ele>
        <time>2009-05-19T10:15:50Z</time>
      </trkpt>
      <trkpt lat="53.001564" lon="13.153958">
        <ele>54.930000</ele>
        <time>2009-05-19T10:15:52Z</time>
      </trkpt>
      <trkpt lat="53.001512" lon="13.154174">
        <ele>54.450000</ele>
        <time>2009-05-19T10:15:59Z</time>
      </trkpt>
      <trkpt lat="53.001658" lon="13.154703">
        <ele>53.490000</ele>
        <time>2009-05-19T10:16:08Z</time>
      </trkpt>
      <trkpt lat="53.001974" lon="13.155739">
        <ele>53.010000</ele>
        <time>2009-05-19T10:16:25Z</time>
      </trkpt>
      <trkpt lat="53.002016" lon="13.156644">
        <ele>52.050000</ele>
        <time>2009-05-19T10:16:40Z</time>
      </trkpt>
      <trkpt lat="53.002122" lon="13.157507">
        <ele>52.530000</ele>
        <time>2009-05-19T10:16:55Z</time>
      </trkpt>
      <trkpt lat="53.002232" lon="13.158368">
        <ele>52.050000</ele>
        <time>2009-05-19T10:17:12Z</time>
      </trkpt>
      <trkpt lat="53.002290" lon="13.158856">
        <ele>52.050000</ele>
        <time>2009-05-19T10:17:24Z</time>
      </trkpt>
      <trkpt lat="53.002324" lon="13.159008">
        <ele>52.050000</ele>
        <time>2009-05-19T10:17:30Z</time>
      </trkpt>
      <trkpt lat="53.002578" lon="13.159310">
        <ele>52.050000</ele>
        <time>2009-05-19T10:17:44Z</time>
      </trkpt>
      <trkpt lat="53.002748" lon="13.159541">
        <ele>52.050000</ele>
        <time>2009-05-19T10:17:53Z</time>
      </trkpt>
      <trkpt lat="53.002712" lon="13.159700">
        <ele>52.050000</ele>
        <time>2009-05-19T10:17:58Z</time>
      </trkpt>
      <trkpt lat="53.002770" lon="13.159802">
        <ele>52.050000</ele>
        <time>2009-05-19T10:18:03Z</time>
      </trkpt>
      <trkpt lat="53.003131" lon="13.160207">
        <ele>52.530000</ele>
        <time>2009-05-19T10:18:20Z</time>
      </trkpt>
      <trkpt lat="53.003490" lon="13.160683">
        <ele>52.530000</ele>
        <time>2009-05-19T10:18:37Z</time>
      </trkpt>
      <trkpt lat="53.003828" lon="13.161297">
        <ele>52.530000</ele>
        <time>2009-05-19T10:18:55Z</time>
      </trkpt>
      <trkpt lat="53.004193" lon="13.161868">
        <ele>52.530000</ele>
        <time>2009-05-19T10:19:13Z</time>
      </trkpt>
      <trkpt lat="53.004570" lon="13.162454">
        <ele>52.050000</ele>
        <time>2009-05-19T10:19:32Z</time>
      </trkpt>
      <trkpt lat="53.004963" lon="13.162890">
        <ele>52.050000</ele>
        <time>2009-05-19T10:19:50Z</time>
      </trkpt>
      <trkpt lat="53.005031" lon="13.162951">
        <ele>52.530000</ele>
        <time>2009-05-19T10:19:54Z</time>
      </trkpt>
      <trkpt lat="53.005163" lon="13.163091">
        <ele>52.530000</ele>
        <time>2009-05-19T10:20:03Z</time>
      </trkpt>
      <trkpt lat="53.005458" lon="13.163449">
        <ele>53.490000</ele>
        <time>2009-05-19T10:20:20Z</time>
      </trkpt>
      <trkpt lat="53.005823" lon="13.163702">
        <ele>53.490000</ele>
        <time>2009-05-19T10:20:38Z</time>
      </trkpt>
      <trkpt lat="53.006051" lon="13.163872">
        <ele>53.490000</ele>
        <time>2009-05-19T10:20:52Z</time>
      </trkpt>
      <trkpt lat="53.006070" lon="13.163953">
        <ele>53.490000</ele>
        <time>2009-05-19T10:20:57Z</time>
      </trkpt>
      <trkpt lat="53.005849" lon="13.164318">
        <ele>54.450000</ele>
        <time>2009-05-19T10:21:12Z</time>
      </trkpt>
      <trkpt lat="53.005582" lon="13.164762">
        <ele>54.450000</ele>
        <time>2009-05-19T10:21:28Z</time>
      </trkpt>
      <trkpt lat="53.005554" lon="13.164811">
        <ele>53.970000</ele>
        <time>2009-05-19T10:21:30Z</time>
      </trkpt>
      <trkpt lat="53.005443" lon="13.164928">
        <ele>55.410000</ele>
        <time>2009-05-19T10:21:37Z</time>
      </trkpt>
      <trkpt lat="53.005223" lon="13.165282">
        <ele>55.410000</ele>
        <time>2009-05-19T10:21:51Z</time>
      </trkpt>
      <trkpt lat="53.005055" lon="13.165560">
        <ele>55.410000</ele>
        <time>2009-05-19T10:22:03Z</time>
      </trkpt>
      <trkpt lat="53.005042" lon="13.165623">
        <ele>54.450000</ele>
        <time>2009-05-19T10:22:15Z</time>
      </trkpt>
      <trkpt lat="53.005038" lon="13.165632">
        <ele>55.890000</ele>
        <time>2009-05-19T10:26:23Z</time>
      </trkpt>
      <trkpt lat="53.004949" lon="13.165744">
        <ele>55.890000</ele>
        <time>2009-05-19T10:26:37Z</time>
      </trkpt>
      <trkpt lat="53.004949" lon="13.165744">
        <ele>53.010000</ele>
        <time>2009-05-19T10:26:40Z</time>
      </trkpt>
      <trkpt lat="53.004949" lon="13.165744">
        <ele>55.890000</ele>
        <time>2009-05-19T10:26:45Z</time>
      </trkpt>
      <trkpt lat="53.004958" lon="13.165698">
        <ele>55.890000</ele>
        <time>2009-05-19T10:27:32Z</time>
      </trkpt>
      <trkpt lat="53.005012" lon="13.165610">
        <ele>55.890000</ele>
        <time>2009-05-19T10:27:38Z</time>
      </trkpt>
      <trkpt lat="53.005076" lon="13.165518">
        <ele>55.890000</ele>
        <time>2009-05-19T10:27:44Z</time>
      </trkpt>
      <trkpt lat="53.005238" lon="13.165499">
        <ele>55.410000</ele>
        <time>2009-05-19T10:27:52Z</time>
      </trkpt>
      <trkpt lat="53.005521" lon="13.165046">
        <ele>56.860000</ele>
        <time>2009-05-19T10:28:08Z</time>
      </trkpt>
      <trkpt lat="53.005732" lon="13.164660">
        <ele>54.930000</ele>
        <time>2009-05-19T10:28:21Z</time>
      </trkpt>
      <trkpt lat="53.005997" lon="13.164245">
        <ele>54.930000</ele>
        <time>2009-05-19T10:28:35Z</time>
      </trkpt>
      <trkpt lat="53.006146" lon="13.164028">
        <ele>54.930000</ele>
        <time>2009-05-19T10:28:43Z</time>
      </trkpt>
      <trkpt lat="53.006263" lon="13.163923">
        <ele>54.450000</ele>
        <time>2009-05-19T10:28:51Z</time>
      </trkpt>
      <trkpt lat="53.006468" lon="13.164233">
        <ele>54.930000</ele>
        <time>2009-05-19T10:29:05Z</time>
      </trkpt>
      <trkpt lat="53.006683" lon="13.164606">
        <ele>54.450000</ele>
        <time>2009-05-19T10:29:17Z</time>
      </trkpt>
      <trkpt lat="53.007006" lon="13.165188">
        <ele>54.930000</ele>
        <time>2009-05-19T10:29:37Z</time>
      </trkpt>
      <trkpt lat="53.007181" lon="13.165459">
        <ele>54.930000</ele>
        <time>2009-05-19T10:29:51Z</time>
      </trkpt>
      <trkpt lat="53.007181" lon="13.165459">
        <ele>54.450000</ele>
        <time>2009-05-19T10:29:53Z</time>
      </trkpt>
      <trkpt lat="53.007264" lon="13.165429">
        <ele>54.450000</ele>
        <time>2009-05-19T10:29:58Z</time>
      </trkpt>
      <trkpt lat="53.007343" lon="13.165485">
        <ele>54.450000</ele>
        <time>2009-05-19T10:30:02Z</time>
      </trkpt>
      <trkpt lat="53.007620" lon="13.165944">
        <ele>53.490000</ele>
        <time>2009-05-19T10:30:17Z</time>
      </trkpt>
      <trkpt lat="53.007888" lon="13.166385">
        <ele>53.010000</ele>
        <time>2009-05-19T10:30:32Z</time>
      </trkpt>
      <trkpt lat="53.008191" lon="13.166863">
        <ele>52.530000</ele>
        <time>2009-05-19T10:30:47Z</time>
      </trkpt>
      <trkpt lat="53.008413" lon="13.167258">
        <ele>52.530000</ele>
        <time>2009-05-19T10:31:01Z</time>
      </trkpt>
      <trkpt lat="53.008497" lon="13.167395">
        <ele>52.530000</ele>
        <time>2009-05-19T10:31:07Z</time>
      </trkpt>
      <trkpt lat="53.008496" lon="13.167374">
        <ele>53.970000</ele>
        <time>2009-05-19T10:31:16Z</time>
      </trkpt>
      <trkpt lat="53.008310" lon="13.167060">
        <ele>53.490000</ele>
        <time>2009-05-19T10:31:29Z</time>
      </trkpt>
      <trkpt lat="53.008098" lon="13.166697">
        <ele>53.970000</ele>
        <time>2009-05-19T10:31:41Z</time>
      </trkpt>
      <trkpt lat="53.007763" lon="13.166181">
        <ele>54.450000</ele>
        <time>2009-05-19T10:31:58Z</time>
      </trkpt>
      <trkpt lat="53.007408" lon="13.165579">
        <ele>53.970000</ele>
        <time>2009-05-19T10:32:16Z</time>
      </trkpt>
      <trkpt lat="53.007108" lon="13.165041">
        <ele>54.930000</ele>
        <time>2009-05-19T10:32:32Z</time>
      </trkpt>
      <trkpt lat="53.006865" lon="13.164576">
        <ele>54.930000</ele>
        <time>2009-05-19T10:32:47Z</time>
      </trkpt>
      <trkpt lat="53.006545" lon="13.164044">
        <ele>55.410000</ele>
        <time>2009-05-19T10:33:05Z</time>
      </trkpt>
      <trkpt lat="53.006379" lon="13.163604">
        <ele>55.890000</ele>
        <time>2009-05-19T10:33:20Z</time>
      </trkpt>
      <trkpt lat="53.006358" lon="13.163441">
        <ele>55.890000</ele>
        <time>2009-05-19T10:33:25Z</time>
      </trkpt>
      <trkpt lat="53.006167" lon="13.163459">
        <ele>55.890000</ele>
        <time>2009-05-19T10:33:35Z</time>
      </trkpt>
      <trkpt lat="53.005828" lon="13.163246">
        <ele>55.890000</ele>
        <time>2009-05-19T10:33:48Z</time>
      </trkpt>
      <trkpt lat="53.005233" lon="13.162876">
        <ele>54.450000</ele>
        <time>2009-05-19T10:34:05Z</time>
      </trkpt>
      <trkpt lat="53.004846" lon="13.162577">
        <ele>53.490000</ele>
        <time>2009-05-19T10:34:18Z</time>
      </trkpt>
      <trkpt lat="53.004496" lon="13.162120">
        <ele>53.490000</ele>
        <time>2009-05-19T10:34:33Z</time>
      </trkpt>
      <trkpt lat="53.004610" lon="13.162266">
        <ele>92.420000</ele>
        <time>2009-05-19T10:50:01Z</time>
      </trkpt>
      <trkpt lat="53.004610" lon="13.162266">
        <ele>48.680000</ele>
        <time>2009-05-19T10:50:02Z</time>
      </trkpt>
      <trkpt lat="53.007126" lon="13.148897">
        <ele>48.680000</ele>
        <time>2009-05-19T10:50:04Z</time>
      </trkpt>
      <trkpt lat="53.007247" lon="13.148423">
        <ele>48.200000</ele>
        <time>2009-05-19T10:50:18Z</time>
      </trkpt>
      <trkpt lat="53.007360" lon="13.147936">
        <ele>47.720000</ele>
        <time>2009-05-19T10:50:33Z</time>
      </trkpt>
      <trkpt lat="53.007429" lon="13.147326">
        <ele>49.160000</ele>
        <time>2009-05-19T10:50:50Z</time>
      </trkpt>
      <trkpt lat="53.007495" lon="13.146684">
        <ele>49.650000</ele>
        <time>2009-05-19T10:51:07Z</time>
      </trkpt>
      <trkpt lat="53.007538" lon="13.146098">
        <ele>49.650000</ele>
        <time>2009-05-19T10:51:22Z</time>
      </trkpt>
      <trkpt lat="53.007569" lon="13.145962">
        <ele>50.610000</ele>
        <time>2009-05-19T10:51:37Z</time>
      </trkpt>
      <trkpt lat="53.007569" lon="13.145962">
        <ele>51.090000</ele>
        <time>2009-05-19T10:51:53Z</time>
      </trkpt>
      <trkpt lat="53.007569" lon="13.145950">
        <ele>50.130000</ele>
        <time>2009-05-19T10:53:04Z</time>
      </trkpt>
      <trkpt lat="53.007564" lon="13.145663">
        <ele>50.610000</ele>
        <time>2009-05-19T10:53:49Z</time>
      </trkpt>
      <trkpt lat="53.007586" lon="13.145070">
        <ele>50.610000</ele>
        <time>2009-05-19T10:54:04Z</time>
      </trkpt>
      <trkpt lat="53.007609" lon="13.144858">
        <ele>50.610000</ele>
        <time>2009-05-19T10:54:10Z</time>
      </trkpt>
      <trkpt lat="53.007626" lon="13.144710">
        <ele>50.130000</ele>
        <time>2009-05-19T10:54:14Z</time>
      </trkpt>
      <trkpt lat="53.007648" lon="13.144090">
        <ele>51.570000</ele>
        <time>2009-05-19T10:54:27Z</time>
      </trkpt>
      <trkpt lat="53.007704" lon="13.143367">
        <ele>49.650000</ele>
        <time>2009-05-19T10:54:44Z</time>
      </trkpt>
      <trkpt lat="53.007860" lon="13.142621">
        <ele>50.610000</ele>
        <time>2009-05-19T10:55:01Z</time>
      </trkpt>
      <trkpt lat="53.007966" lon="13.142250">
        <ele>50.610000</ele>
        <time>2009-05-19T10:55:12Z</time>
      </trkpt>
      <trkpt lat="53.008441" lon="13.142247">
        <ele>50.610000</ele>
        <time>2009-05-19T10:55:27Z</time>
      </trkpt>
      <trkpt lat="53.008938" lon="13.142217">
        <ele>51.090000</ele>
        <time>2009-05-19T10:55:41Z</time>
      </trkpt>
      <trkpt lat="53.009815" lon="13.142203">
        <ele>50.130000</ele>
        <time>2009-05-19T10:56:01Z</time>
      </trkpt>
      <trkpt lat="53.010522" lon="13.141928">
        <ele>51.090000</ele>
        <time>2009-05-19T10:56:20Z</time>
      </trkpt>
      <trkpt lat="53.011154" lon="13.141487">
        <ele>51.570000</ele>
        <time>2009-05-19T10:56:37Z</time>
      </trkpt>
      <trkpt lat="53.011815" lon="13.141539">
        <ele>51.090000</ele>
        <time>2009-05-19T10:56:54Z</time>
      </trkpt>
      <trkpt lat="53.012466" lon="13.141705">
        <ele>52.530000</ele>
        <time>2009-05-19T10:57:13Z</time>
      </trkpt>
      <trkpt lat="53.013123" lon="13.141858">
        <ele>52.530000</ele>
        <time>2009-05-19T10:57:31Z</time>
      </trkpt>
      <trkpt lat="53.013567" lon="13.141892">
        <ele>51.570000</ele>
        <time>2009-05-19T10:57:45Z</time>
      </trkpt>
      <trkpt lat="53.014315" lon="13.141588">
        <ele>51.090000</ele>
        <time>2009-05-19T10:58:04Z</time>
      </trkpt>
      <trkpt lat="53.015113" lon="13.141113">
        <ele>50.610000</ele>
        <time>2009-05-19T10:58:25Z</time>
      </trkpt>
      <trkpt lat="53.015751" lon="13.140861">
        <ele>51.090000</ele>
        <time>2009-05-19T10:58:41Z</time>
      </trkpt>
      <trkpt lat="53.016488" lon="13.140719">
        <ele>51.090000</ele>
        <time>2009-05-19T10:58:59Z</time>
      </trkpt>
      <trkpt lat="53.017270" lon="13.140526">
        <ele>50.610000</ele>
        <time>2009-05-19T10:59:18Z</time>
      </trkpt>
      <trkpt lat="53.017420" lon="13.140478">
        <ele>49.650000</ele>
        <time>2009-05-19T10:59:22Z</time>
      </trkpt>
      <trkpt lat="53.018240" lon="13.140236">
        <ele>50.610000</ele>
        <time>2009-05-19T10:59:43Z</time>
      </trkpt>
      <trkpt lat="53.019004" lon="13.139998">
        <ele>51.090000</ele>
        <time>2009-05-19T11:00:03Z</time>
      </trkpt>
      <trkpt lat="53.019510" lon="13.139853">
        <ele>50.130000</ele>
        <time>2009-05-19T11:00:18Z</time>
      </trkpt>
      <trkpt lat="53.020180" lon="13.139620">
        <ele>50.130000</ele>
        <time>2009-05-19T11:00:36Z</time>
      </trkpt>
      <trkpt lat="53.020617" lon="13.139505">
        <ele>50.130000</ele>
        <time>2009-05-19T11:00:50Z</time>
      </trkpt>
      <trkpt lat="53.021116" lon="13.139352">
        <ele>50.610000</ele>
        <time>2009-05-19T11:01:04Z</time>
      </trkpt>
      <trkpt lat="53.021624" lon="13.139169">
        <ele>51.090000</ele>
        <time>2009-05-19T11:01:18Z</time>
      </trkpt>
      <trkpt lat="53.022161" lon="13.139038">
        <ele>51.090000</ele>
        <time>2009-05-19T11:01:33Z</time>
      </trkpt>
      <trkpt lat="53.022779" lon="13.138815">
        <ele>50.610000</ele>
        <time>2009-05-19T11:01:50Z</time>
      </trkpt>
      <trkpt lat="53.023480" lon="13.138641">
        <ele>51.570000</ele>
        <time>2009-05-19T11:02:07Z</time>
      </trkpt>
      <trkpt lat="53.024035" lon="13.138676">
        <ele>49.650000</ele>
        <time>2009-05-19T11:02:23Z</time>
      </trkpt>
      <trkpt lat="53.024772" lon="13.138929">
        <ele>50.130000</ele>
        <time>2009-05-19T11:02:43Z</time>
      </trkpt>
      <trkpt lat="53.025317" lon="13.139130">
        <ele>50.130000</ele>
        <time>2009-05-19T11:02:56Z</time>
      </trkpt>
      <trkpt lat="53.025482" lon="13.139197">
        <ele>50.130000</ele>
        <time>2009-05-19T11:03:00Z</time>
      </trkpt>
      <trkpt lat="53.026256" lon="13.139449">
        <ele>50.610000</ele>
        <time>2009-05-19T11:03:19Z</time>
      </trkpt>
      <trkpt lat="53.026841" lon="13.139653">
        <ele>51.570000</ele>
        <time>2009-05-19T11:03:35Z</time>
      </trkpt>
      <trkpt lat="53.027300" lon="13.139821">
        <ele>52.050000</ele>
        <time>2009-05-19T11:03:49Z</time>
      </trkpt>
      <trkpt lat="53.027723" lon="13.139969">
        <ele>52.530000</ele>
        <time>2009-05-19T11:04:00Z</time>
      </trkpt>
      <trkpt lat="53.028111" lon="13.140087">
        <ele>51.090000</ele>
        <time>2009-05-19T11:04:15Z</time>
      </trkpt>
      <trkpt lat="53.028327" lon="13.140171">
        <ele>51.090000</ele>
        <time>2009-05-19T11:04:28Z</time>
      </trkpt>
      <trkpt lat="53.028381" lon="13.140201">
        <ele>51.570000</ele>
        <time>2009-05-19T11:04:40Z</time>
      </trkpt>
      <trkpt lat="53.028381" lon="13.140199">
        <ele>51.570000</ele>
        <time>2009-05-19T11:05:40Z</time>
      </trkpt>
      <trkpt lat="53.028406" lon="13.140160">
        <ele>50.610000</ele>
        <time>2009-05-19T11:06:29Z</time>
      </trkpt>
      <trkpt lat="53.028452" lon="13.140067">
        <ele>50.610000</ele>
        <time>2009-05-19T11:06:34Z</time>
      </trkpt>
      <trkpt lat="53.028560" lon="13.139395">
        <ele>51.090000</ele>
        <time>2009-05-19T11:06:47Z</time>
      </trkpt>
      <trkpt lat="53.028696" lon="13.138720">
        <ele>51.570000</ele>
        <time>2009-05-19T11:07:01Z</time>
      </trkpt>
      <trkpt lat="53.028863" lon="13.137859">
        <ele>51.570000</ele>
        <time>2009-05-19T11:07:16Z</time>
      </trkpt>
      <trkpt lat="53.029029" lon="13.137081">
        <ele>51.570000</ele>
        <time>2009-05-19T11:07:29Z</time>
      </trkpt>
      <trkpt lat="53.029197" lon="13.136253">
        <ele>51.090000</ele>
        <time>2009-05-19T11:07:43Z</time>
      </trkpt>
      <trkpt lat="53.029343" lon="13.135534">
        <ele>52.050000</ele>
        <time>2009-05-19T11:07:57Z</time>
      </trkpt>
      <trkpt lat="53.029524" lon="13.134686">
        <ele>52.530000</ele>
        <time>2009-05-19T11:08:12Z</time>
      </trkpt>
      <trkpt lat="53.029705" lon="13.133858">
        <ele>51.570000</ele>
        <time>2009-05-19T11:08:27Z</time>
      </trkpt>
      <trkpt lat="53.029772" lon="13.132962">
        <ele>52.050000</ele>
        <time>2009-05-19T11:08:42Z</time>
      </trkpt>
      <trkpt lat="53.029585" lon="13.132106">
        <ele>52.050000</ele>
        <time>2009-05-19T11:08:57Z</time>
      </trkpt>
      <trkpt lat="53.029701" lon="13.131255">
        <ele>52.050000</ele>
        <time>2009-05-19T11:09:12Z</time>
      </trkpt>
      <trkpt lat="53.029818" lon="13.130462">
        <ele>52.530000</ele>
        <time>2009-05-19T11:09:26Z</time>
      </trkpt>
      <trkpt lat="53.029922" lon="13.129554">
        <ele>52.050000</ele>
        <time>2009-05-19T11:09:42Z</time>
      </trkpt>
      <trkpt lat="53.029992" lon="13.128887">
        <ele>52.050000</ele>
        <time>2009-05-19T11:09:54Z</time>
      </trkpt>
      <trkpt lat="53.030085" lon="13.128129">
        <ele>51.570000</ele>
        <time>2009-05-19T11:10:07Z</time>
      </trkpt>
      <trkpt lat="53.030315" lon="13.127622">
        <ele>52.050000</ele>
        <time>2009-05-19T11:10:19Z</time>
      </trkpt>
      <trkpt lat="53.030696" lon="13.127095">
        <ele>51.570000</ele>
        <time>2009-05-19T11:10:33Z</time>
      </trkpt>
      <trkpt lat="53.030762" lon="13.126377">
        <ele>51.570000</ele>
        <time>2009-05-19T11:10:45Z</time>
      </trkpt>
      <trkpt lat="53.030698" lon="13.125440">
        <ele>51.570000</ele>
        <time>2009-05-19T11:11:02Z</time>
      </trkpt>
      <trkpt lat="53.030627" lon="13.124640">
        <ele>51.570000</ele>
        <time>2009-05-19T11:11:17Z</time>
      </trkpt>
      <trkpt lat="53.030590" lon="13.123869">
        <ele>52.050000</ele>
        <time>2009-05-19T11:11:31Z</time>
      </trkpt>
      <trkpt lat="53.030546" lon="13.123210">
        <ele>52.050000</ele>
        <time>2009-05-19T11:11:43Z</time>
      </trkpt>
      <trkpt lat="53.030476" lon="13.122399">
        <ele>52.050000</ele>
        <time>2009-05-19T11:12:00Z</time>
      </trkpt>
      <trkpt lat="53.030503" lon="13.121412">
        <ele>52.050000</ele>
        <time>2009-05-19T11:12:19Z</time>
      </trkpt>
      <trkpt lat="53.030640" lon="13.120773">
        <ele>52.050000</ele>
        <time>2009-05-19T11:12:33Z</time>
      </trkpt>
      <trkpt lat="53.030820" lon="13.120081">
        <ele>53.010000</ele>
        <time>2009-05-19T11:12:49Z</time>
      </trkpt>
      <trkpt lat="53.031006" lon="13.119349">
        <ele>53.010000</ele>
        <time>2009-05-19T11:13:04Z</time>
      </trkpt>
      <trkpt lat="53.031167" lon="13.118935">
        <ele>53.010000</ele>
        <time>2009-05-19T11:13:12Z</time>
      </trkpt>
      <trkpt lat="53.031390" lon="13.118464">
        <ele>53.010000</ele>
        <time>2009-05-19T11:13:24Z</time>
      </trkpt>
      <trkpt lat="53.031666" lon="13.117941">
        <ele>53.490000</ele>
        <time>2009-05-19T11:13:38Z</time>
      </trkpt>
      <trkpt lat="53.031886" lon="13.117518">
        <ele>53.970000</ele>
        <time>2009-05-19T11:13:50Z</time>
      </trkpt>
      <trkpt lat="53.032180" lon="13.116916">
        <ele>54.450000</ele>
        <time>2009-05-19T11:14:07Z</time>
      </trkpt>
      <trkpt lat="53.032369" lon="13.116289">
        <ele>55.410000</ele>
        <time>2009-05-19T11:14:22Z</time>
      </trkpt>
      <trkpt lat="53.032510" lon="13.115702">
        <ele>55.890000</ele>
        <time>2009-05-19T11:14:38Z</time>
      </trkpt>
      <trkpt lat="53.032576" lon="13.115633">
        <ele>56.370000</ele>
        <time>2009-05-19T11:14:52Z</time>
      </trkpt>
      <trkpt lat="53.032649" lon="13.115614">
        <ele>56.370000</ele>
        <time>2009-05-19T11:15:16Z</time>
      </trkpt>
      <trkpt lat="53.032663" lon="13.115556">
        <ele>55.890000</ele>
        <time>2009-05-19T11:15:35Z</time>
      </trkpt>
      <trkpt lat="53.032674" lon="13.115555">
        <ele>57.340000</ele>
        <time>2009-05-19T11:21:46Z</time>
      </trkpt>
      <trkpt lat="53.032674" lon="13.115537">
        <ele>55.890000</ele>
        <time>2009-05-19T11:22:58Z</time>
      </trkpt>
      <trkpt lat="53.032655" lon="13.115552">
        <ele>56.860000</ele>
        <time>2009-05-19T11:23:10Z</time>
      </trkpt>
      <trkpt lat="53.032645" lon="13.115577">
        <ele>55.890000</ele>
        <time>2009-05-19T11:23:12Z</time>
      </trkpt>
      <trkpt lat="53.032404" lon="13.115495">
        <ele>55.890000</ele>
        <time>2009-05-19T11:23:23Z</time>
      </trkpt>
      <trkpt lat="53.031991" lon="13.115164">
        <ele>54.450000</ele>
        <time>2009-05-19T11:23:37Z</time>
      </trkpt>
      <trkpt lat="53.031659" lon="13.114583">
        <ele>54.450000</ele>
        <time>2009-05-19T11:23:51Z</time>
      </trkpt>
      <trkpt lat="53.031567" lon="13.114042">
        <ele>55.890000</ele>
        <time>2009-05-19T11:24:06Z</time>
      </trkpt>
      <trkpt lat="53.031435" lon="13.113377">
        <ele>56.370000</ele>
        <time>2009-05-19T11:24:24Z</time>
      </trkpt>
      <trkpt lat="53.031357" lon="13.112908">
        <ele>56.370000</ele>
        <time>2009-05-19T11:24:38Z</time>
      </trkpt>
      <trkpt lat="53.031367" lon="13.112832">
        <ele>56.860000</ele>
        <time>2009-05-19T11:24:45Z</time>
      </trkpt>
      <trkpt lat="53.031355" lon="13.112802">
        <ele>56.860000</ele>
        <time>2009-05-19T11:24:47Z</time>
      </trkpt>
      <trkpt lat="53.031333" lon="13.112677">
        <ele>56.860000</ele>
        <time>2009-05-19T11:24:52Z</time>
      </trkpt>
      <trkpt lat="53.031279" lon="13.112263">
        <ele>57.340000</ele>
        <time>2009-05-19T11:25:06Z</time>
      </trkpt>
      <trkpt lat="53.031071" lon="13.111815">
        <ele>55.410000</ele>
        <time>2009-05-19T11:25:18Z</time>
      </trkpt>
      <trkpt lat="53.030624" lon="13.111849">
        <ele>54.930000</ele>
        <time>2009-05-19T11:25:29Z</time>
      </trkpt>
      <trkpt lat="53.030246" lon="13.111626">
        <ele>54.930000</ele>
        <time>2009-05-19T11:25:42Z</time>
      </trkpt>
      <trkpt lat="53.029876" lon="13.111198">
        <ele>55.890000</ele>
        <time>2009-05-19T11:25:58Z</time>
      </trkpt>
      <trkpt lat="53.029467" lon="13.110765">
        <ele>58.780000</ele>
        <time>2009-05-19T11:26:16Z</time>
      </trkpt>
      <trkpt lat="53.029214" lon="13.110518">
        <ele>60.220000</ele>
        <time>2009-05-19T11:26:30Z</time>
      </trkpt>
      <trkpt lat="53.029003" lon="13.110275">
        <ele>61.660000</ele>
        <time>2009-05-19T11:26:40Z</time>
      </trkpt>
      <trkpt lat="53.028731" lon="13.109995">
        <ele>62.620000</ele>
        <time>2009-05-19T11:26:53Z</time>
      </trkpt>
      <trkpt lat="53.028431" lon="13.109597">
        <ele>63.580000</ele>
        <time>2009-05-19T11:27:09Z</time>
      </trkpt>
      <trkpt lat="53.028116" lon="13.109253">
        <ele>63.580000</ele>
        <time>2009-05-19T11:27:25Z</time>
      </trkpt>
      <trkpt lat="53.027829" lon="13.108885">
        <ele>64.070000</ele>
        <time>2009-05-19T11:27:38Z</time>
      </trkpt>
      <trkpt lat="53.027442" lon="13.108466">
        <ele>64.070000</ele>
        <time>2009-05-19T11:27:54Z</time>
      </trkpt>
      <trkpt lat="53.027140" lon="13.108021">
        <ele>63.580000</ele>
        <time>2009-05-19T11:28:09Z</time>
      </trkpt>
      <trkpt lat="53.026828" lon="13.107657">
        <ele>63.580000</ele>
        <time>2009-05-19T11:28:23Z</time>
      </trkpt>
      <trkpt lat="53.026551" lon="13.107307">
        <ele>64.070000</ele>
        <time>2009-05-19T11:28:36Z</time>
      </trkpt>
      <trkpt lat="53.026228" lon="13.106932">
        <ele>63.100000</ele>
        <time>2009-05-19T11:28:49Z</time>
      </trkpt>
      <trkpt lat="53.025827" lon="13.106410">
        <ele>62.620000</ele>
        <time>2009-05-19T11:29:05Z</time>
      </trkpt>
      <trkpt lat="53.025412" lon="13.105907">
        <ele>62.140000</ele>
        <time>2009-05-19T11:29:20Z</time>
      </trkpt>
      <trkpt lat="53.025092" lon="13.105531">
        <ele>61.660000</ele>
        <time>2009-05-19T11:29:31Z</time>
      </trkpt>
      <trkpt lat="53.024691" lon="13.105063">
        <ele>62.140000</ele>
        <time>2009-05-19T11:29:47Z</time>
      </trkpt>
      <trkpt lat="53.024345" lon="13.104593">
        <ele>62.620000</ele>
        <time>2009-05-19T11:30:02Z</time>
      </trkpt>
      <trkpt lat="53.023900" lon="13.104045">
        <ele>63.100000</ele>
        <time>2009-05-19T11:30:20Z</time>
      </trkpt>
      <trkpt lat="53.023616" lon="13.103716">
        <ele>64.550000</ele>
        <time>2009-05-19T11:30:35Z</time>
      </trkpt>
      <trkpt lat="53.023399" lon="13.103436">
        <ele>64.070000</ele>
        <time>2009-05-19T11:30:47Z</time>
      </trkpt>
      <trkpt lat="53.023086" lon="13.103019">
        <ele>65.510000</ele>
        <time>2009-05-19T11:31:03Z</time>
      </trkpt>
      <trkpt lat="53.022769" lon="13.102627">
        <ele>66.470000</ele>
        <time>2009-05-19T11:31:21Z</time>
      </trkpt>
      <trkpt lat="53.022562" lon="13.102266">
        <ele>66.950000</ele>
        <time>2009-05-19T11:31:34Z</time>
      </trkpt>
      <trkpt lat="53.022419" lon="13.101805">
        <ele>66.470000</ele>
        <time>2009-05-19T11:31:45Z</time>
      </trkpt>
      <trkpt lat="53.022250" lon="13.101230">
        <ele>66.470000</ele>
        <time>2009-05-19T11:31:56Z</time>
      </trkpt>
      <trkpt lat="53.022029" lon="13.100506">
        <ele>65.990000</ele>
        <time>2009-05-19T11:32:12Z</time>
      </trkpt>
      <trkpt lat="53.021874" lon="13.099742">
        <ele>65.030000</ele>
        <time>2009-05-19T11:32:28Z</time>
      </trkpt>
      <trkpt lat="53.021671" lon="13.099015">
        <ele>63.580000</ele>
        <time>2009-05-19T11:32:44Z</time>
      </trkpt>
      <trkpt lat="53.021504" lon="13.098350">
        <ele>63.100000</ele>
        <time>2009-05-19T11:33:00Z</time>
      </trkpt>
      <trkpt lat="53.021269" lon="13.097473">
        <ele>63.100000</ele>
        <time>2009-05-19T11:33:18Z</time>
      </trkpt>
      <trkpt lat="53.021084" lon="13.096804">
        <ele>63.100000</ele>
        <time>2009-05-19T11:33:33Z</time>
      </trkpt>
      <trkpt lat="53.020985" lon="13.096429">
        <ele>64.070000</ele>
        <time>2009-05-19T11:33:42Z</time>
      </trkpt>
      <trkpt lat="53.020824" lon="13.095807">
        <ele>64.070000</ele>
        <time>2009-05-19T11:33:56Z</time>
      </trkpt>
      <trkpt lat="53.020616" lon="13.094950">
        <ele>64.550000</ele>
        <time>2009-05-19T11:34:14Z</time>
      </trkpt>
      <trkpt lat="53.020441" lon="13.094387">
        <ele>65.030000</ele>
        <time>2009-05-19T11:34:28Z</time>
      </trkpt>
      <trkpt lat="53.020300" lon="13.093757">
        <ele>65.030000</ele>
        <time>2009-05-19T11:34:43Z</time>
      </trkpt>
      <trkpt lat="53.020137" lon="13.093138">
        <ele>65.510000</ele>
        <time>2009-05-19T11:34:59Z</time>
      </trkpt>
      <trkpt lat="53.019953" lon="13.092442">
        <ele>64.550000</ele>
        <time>2009-05-19T11:35:16Z</time>
      </trkpt>
      <trkpt lat="53.019760" lon="13.091762">
        <ele>65.510000</ele>
        <time>2009-05-19T11:35:34Z</time>
      </trkpt>
      <trkpt lat="53.019563" lon="13.091083">
        <ele>65.990000</ele>
        <time>2009-05-19T11:35:51Z</time>
      </trkpt>
      <trkpt lat="53.019388" lon="13.090620">
        <ele>67.430000</ele>
        <time>2009-05-19T11:36:04Z</time>
      </trkpt>
      <trkpt lat="53.019290" lon="13.090069">
        <ele>67.910000</ele>
        <time>2009-05-19T11:36:19Z</time>
      </trkpt>
      <trkpt lat="53.019201" lon="13.089560">
        <ele>66.950000</ele>
        <time>2009-05-19T11:36:35Z</time>
      </trkpt>
      <trkpt lat="53.019110" lon="13.089080">
        <ele>66.470000</ele>
        <time>2009-05-19T11:36:51Z</time>
      </trkpt>
      <trkpt lat="53.019092" lon="13.088873">
        <ele>65.510000</ele>
        <time>2009-05-19T11:36:58Z</time>
      </trkpt>
      <trkpt lat="53.019106" lon="13.088707">
        <ele>65.510000</ele>
        <time>2009-05-19T11:37:13Z</time>
      </trkpt>
      <trkpt lat="53.019070" lon="13.088203">
        <ele>65.030000</ele>
        <time>2009-05-19T11:37:25Z</time>
      </trkpt>
      <trkpt lat="53.018933" lon="13.087301">
        <ele>64.550000</ele>
        <time>2009-05-19T11:37:38Z</time>
      </trkpt>
      <trkpt lat="53.018774" lon="13.086186">
        <ele>64.070000</ele>
        <time>2009-05-19T11:37:55Z</time>
      </trkpt>
      <trkpt lat="53.018656" lon="13.085343">
        <ele>64.070000</ele>
        <time>2009-05-19T11:38:11Z</time>
      </trkpt>
      <trkpt lat="53.018473" lon="13.084540">
        <ele>63.100000</ele>
        <time>2009-05-19T11:38:28Z</time>
      </trkpt>
      <trkpt lat="53.018253" lon="13.083629">
        <ele>63.580000</ele>
        <time>2009-05-19T11:38:46Z</time>
      </trkpt>
      <trkpt lat="53.018002" lon="13.082701">
        <ele>63.100000</ele>
        <time>2009-05-19T11:39:05Z</time>
      </trkpt>
      <trkpt lat="53.017765" lon="13.081904">
        <ele>64.550000</ele>
        <time>2009-05-19T11:39:21Z</time>
      </trkpt>
      <trkpt lat="53.017502" lon="13.081114">
        <ele>65.030000</ele>
        <time>2009-05-19T11:39:38Z</time>
      </trkpt>
      <trkpt lat="53.017116" lon="13.080439">
        <ele>65.510000</ele>
        <time>2009-05-19T11:39:55Z</time>
      </trkpt>
      <trkpt lat="53.016721" lon="13.079804">
        <ele>65.990000</ele>
        <time>2009-05-19T11:40:13Z</time>
      </trkpt>
      <trkpt lat="53.016331" lon="13.079176">
        <ele>67.430000</ele>
        <time>2009-05-19T11:40:33Z</time>
      </trkpt>
      <trkpt lat="53.015934" lon="13.078554">
        <ele>67.910000</ele>
        <time>2009-05-19T11:40:53Z</time>
      </trkpt>
      <trkpt lat="53.015503" lon="13.077890">
        <ele>68.870000</ele>
        <time>2009-05-19T11:41:13Z</time>
      </trkpt>
      <trkpt lat="53.015115" lon="13.077284">
        <ele>69.830000</ele>
        <time>2009-05-19T11:41:31Z</time>
      </trkpt>
      <trkpt lat="53.014621" lon="13.076522">
        <ele>70.790000</ele>
        <time>2009-05-19T11:41:53Z</time>
      </trkpt>
      <trkpt lat="53.014222" lon="13.075882">
        <ele>70.310000</ele>
        <time>2009-05-19T11:42:11Z</time>
      </trkpt>
      <trkpt lat="53.013832" lon="13.075231">
        <ele>70.310000</ele>
        <time>2009-05-19T11:42:27Z</time>
      </trkpt>
      <trkpt lat="53.013447" lon="13.074579">
        <ele>70.790000</ele>
        <time>2009-05-19T11:42:45Z</time>
      </trkpt>
      <trkpt lat="53.013095" lon="13.073989">
        <ele>71.270000</ele>
        <time>2009-05-19T11:43:01Z</time>
      </trkpt>
      <trkpt lat="53.012798" lon="13.073478">
        <ele>71.270000</ele>
        <time>2009-05-19T11:43:16Z</time>
      </trkpt>
      <trkpt lat="53.012425" lon="13.072840">
        <ele>70.790000</ele>
        <time>2009-05-19T11:43:31Z</time>
      </trkpt>
      <trkpt lat="53.011940" lon="13.072047">
        <ele>69.830000</ele>
        <time>2009-05-19T11:43:49Z</time>
      </trkpt>
      <trkpt lat="53.011405" lon="13.071113">
        <ele>68.870000</ele>
        <time>2009-05-19T11:44:11Z</time>
      </trkpt>
      <trkpt lat="53.011067" lon="13.070530">
        <ele>69.350000</ele>
        <time>2009-05-19T11:44:26Z</time>
      </trkpt>
      <trkpt lat="53.010658" lon="13.069839">
        <ele>69.830000</ele>
        <time>2009-05-19T11:44:45Z</time>
      </trkpt>
      <trkpt lat="53.010213" lon="13.069092">
        <ele>68.870000</ele>
        <time>2009-05-19T11:45:02Z</time>
      </trkpt>
      <trkpt lat="53.009657" lon="13.068170">
        <ele>66.950000</ele>
        <time>2009-05-19T11:45:17Z</time>
      </trkpt>
      <trkpt lat="53.009187" lon="13.067375">
        <ele>67.430000</ele>
        <time>2009-05-19T11:45:32Z</time>
      </trkpt>
      <trkpt lat="53.008758" lon="13.066658">
        <ele>66.950000</ele>
        <time>2009-05-19T11:45:48Z</time>
      </trkpt>
      <trkpt lat="53.008266" lon="13.065830">
        <ele>67.430000</ele>
        <time>2009-05-19T11:46:07Z</time>
      </trkpt>
      <trkpt lat="53.007923" lon="13.065260">
        <ele>66.470000</ele>
        <time>2009-05-19T11:46:22Z</time>
      </trkpt>
      <trkpt lat="53.007524" lon="13.064589">
        <ele>65.990000</ele>
        <time>2009-05-19T11:46:40Z</time>
      </trkpt>
      <trkpt lat="53.007153" lon="13.063962">
        <ele>65.510000</ele>
        <time>2009-05-19T11:46:57Z</time>
      </trkpt>
      <trkpt lat="53.006759" lon="13.063321">
        <ele>66.470000</ele>
        <time>2009-05-19T11:47:14Z</time>
      </trkpt>
      <trkpt lat="53.006463" lon="13.062772">
        <ele>66.950000</ele>
        <time>2009-05-19T11:47:28Z</time>
      </trkpt>
      <trkpt lat="53.006224" lon="13.061899">
        <ele>68.390000</ele>
        <time>2009-05-19T11:47:47Z</time>
      </trkpt>
      <trkpt lat="53.006002" lon="13.061029">
        <ele>67.910000</ele>
        <time>2009-05-19T11:48:04Z</time>
      </trkpt>
      <trkpt lat="53.005913" lon="13.060663">
        <ele>67.430000</ele>
        <time>2009-05-19T11:48:10Z</time>
      </trkpt>
      <trkpt lat="53.005696" lon="13.059837">
        <ele>65.990000</ele>
        <time>2009-05-19T11:48:23Z</time>
      </trkpt>
      <trkpt lat="53.005378" lon="13.058573">
        <ele>64.550000</ele>
        <time>2009-05-19T11:48:41Z</time>
      </trkpt>
      <trkpt lat="53.005029" lon="13.057213">
        <ele>63.580000</ele>
        <time>2009-05-19T11:49:02Z</time>
      </trkpt>
      <trkpt lat="53.004798" lon="13.056321">
        <ele>64.070000</ele>
        <time>2009-05-19T11:49:20Z</time>
      </trkpt>
      <trkpt lat="53.004710" lon="13.055525">
        <ele>64.550000</ele>
        <time>2009-05-19T11:49:34Z</time>
      </trkpt>
      <trkpt lat="53.004735" lon="13.054430">
        <ele>64.070000</ele>
        <time>2009-05-19T11:49:52Z</time>
      </trkpt>
      <trkpt lat="53.004772" lon="13.053240">
        <ele>63.100000</ele>
        <time>2009-05-19T11:50:10Z</time>
      </trkpt>
      <trkpt lat="53.004789" lon="13.052412">
        <ele>62.140000</ele>
        <time>2009-05-19T11:50:26Z</time>
      </trkpt>
      <trkpt lat="53.004809" lon="13.051607">
        <ele>61.660000</ele>
        <time>2009-05-19T11:50:43Z</time>
      </trkpt>
      <trkpt lat="53.004836" lon="13.050870">
        <ele>61.660000</ele>
        <time>2009-05-19T11:50:59Z</time>
      </trkpt>
      <trkpt lat="53.004859" lon="13.050082">
        <ele>61.660000</ele>
        <time>2009-05-19T11:51:15Z</time>
      </trkpt>
      <trkpt lat="53.004879" lon="13.049193">
        <ele>61.660000</ele>
        <time>2009-05-19T11:51:32Z</time>
      </trkpt>
      <trkpt lat="53.004914" lon="13.048120">
        <ele>61.180000</ele>
        <time>2009-05-19T11:51:49Z</time>
      </trkpt>
      <trkpt lat="53.004931" lon="13.047294">
        <ele>61.180000</ele>
        <time>2009-05-19T11:52:05Z</time>
      </trkpt>
      <trkpt lat="53.004957" lon="13.046409">
        <ele>61.660000</ele>
        <time>2009-05-19T11:52:22Z</time>
      </trkpt>
      <trkpt lat="53.004976" lon="13.045557">
        <ele>62.140000</ele>
        <time>2009-05-19T11:52:39Z</time>
      </trkpt>
      <trkpt lat="53.004922" lon="13.045236">
        <ele>61.660000</ele>
        <time>2009-05-19T11:52:46Z</time>
      </trkpt>
      <trkpt lat="53.004486" lon="13.045387">
        <ele>61.180000</ele>
        <time>2009-05-19T11:53:00Z</time>
      </trkpt>
      <trkpt lat="53.004012" lon="13.045534">
        <ele>60.700000</ele>
        <time>2009-05-19T11:53:16Z</time>
      </trkpt>
      <trkpt lat="53.003549" lon="13.045674">
        <ele>60.700000</ele>
        <time>2009-05-19T11:53:31Z</time>
      </trkpt>
      <trkpt lat="53.002955" lon="13.045796">
        <ele>59.740000</ele>
        <time>2009-05-19T11:53:46Z</time>
      </trkpt>
      <trkpt lat="53.001996" lon="13.045995">
        <ele>58.780000</ele>
        <time>2009-05-19T11:54:07Z</time>
      </trkpt>
      <trkpt lat="53.001457" lon="13.046108">
        <ele>59.260000</ele>
        <time>2009-05-19T11:54:22Z</time>
      </trkpt>
      <trkpt lat="53.000954" lon="13.046219">
        <ele>58.780000</ele>
        <time>2009-05-19T11:54:37Z</time>
      </trkpt>
      <trkpt lat="53.000501" lon="13.046321">
        <ele>58.780000</ele>
        <time>2009-05-19T11:54:51Z</time>
      </trkpt>
      <trkpt lat="53.000097" lon="13.046401">
        <ele>58.780000</ele>
        <time>2009-05-19T11:55:04Z</time>
      </trkpt>
      <trkpt lat="53.000064" lon="13.046414">
        <ele>53.970000</ele>
        <time>2009-05-19T11:55:05Z</time>
      </trkpt>
      <trkpt lat="53.000032" lon="13.046427">
        <ele>57.340000</ele>
        <time>2009-05-19T11:55:06Z</time>
      </trkpt>
      <trkpt lat="52.999527" lon="13.046521">
        <ele>57.340000</ele>
        <time>2009-05-19T11:55:22Z</time>
      </trkpt>
      <trkpt lat="52.998979" lon="13.046642">
        <ele>57.820000</ele>
        <time>2009-05-19T11:55:37Z</time>
      </trkpt>
      <trkpt lat="52.998469" lon="13.046751">
        <ele>58.780000</ele>
        <time>2009-05-19T11:55:53Z</time>
      </trkpt>
      <trkpt lat="52.997860" lon="13.046887">
        <ele>60.220000</ele>
        <time>2009-05-19T11:56:11Z</time>
      </trkpt>
      <trkpt lat="52.997261" lon="13.047010">
        <ele>60.220000</ele>
        <time>2009-05-19T11:56:27Z</time>
      </trkpt>
      <trkpt lat="52.996608" lon="13.047153">
        <ele>59.740000</ele>
        <time>2009-05-19T11:56:45Z</time>
      </trkpt>
      <trkpt lat="52.995779" lon="13.047312">
        <ele>58.300000</ele>
        <time>2009-05-19T11:57:04Z</time>
      </trkpt>
      <trkpt lat="52.995684" lon="13.047342">
        <ele>57.820000</ele>
        <time>2009-05-19T11:57:06Z</time>
      </trkpt>
      <trkpt lat="52.995128" lon="13.047461">
        <ele>57.340000</ele>
        <time>2009-05-19T11:57:18Z</time>
      </trkpt>
      <trkpt lat="52.994332" lon="13.047633">
        <ele>55.890000</ele>
        <time>2009-05-19T11:57:37Z</time>
      </trkpt>
      <trkpt lat="52.993736" lon="13.047756">
        <ele>55.410000</ele>
        <time>2009-05-19T11:57:54Z</time>
      </trkpt>
      <trkpt lat="52.993279" lon="13.047854">
        <ele>55.410000</ele>
        <time>2009-05-19T11:58:07Z</time>
      </trkpt>
      <trkpt lat="52.992854" lon="13.047946">
        <ele>55.410000</ele>
        <time>2009-05-19T11:58:21Z</time>
      </trkpt>
      <trkpt lat="52.992422" lon="13.048025">
        <ele>55.410000</ele>
        <time>2009-05-19T11:58:34Z</time>
      </trkpt>
      <trkpt lat="52.991969" lon="13.048127">
        <ele>55.890000</ele>
        <time>2009-05-19T11:58:48Z</time>
      </trkpt>
      <trkpt lat="52.991391" lon="13.048261">
        <ele>55.890000</ele>
        <time>2009-05-19T11:59:05Z</time>
      </trkpt>
      <trkpt lat="52.991296" lon="13.048279">
        <ele>55.890000</ele>
        <time>2009-05-19T11:59:17Z</time>
      </trkpt>
      <trkpt lat="52.991289" lon="13.048276">
        <ele>56.370000</ele>
        <time>2009-05-19T12:00:36Z</time>
      </trkpt>
      <trkpt lat="52.991286" lon="13.048279">
        <ele>56.370000</ele>
        <time>2009-05-19T12:01:20Z</time>
      </trkpt>
      <trkpt lat="52.991286" lon="13.048279">
        <ele>56.370000</ele>
        <time>2009-05-19T12:01:45Z</time>
      </trkpt>
      <trkpt lat="52.991139" lon="13.048315">
        <ele>56.370000</ele>
        <time>2009-05-19T12:02:10Z</time>
      </trkpt>
      <trkpt lat="52.990576" lon="13.048430">
        <ele>54.450000</ele>
        <time>2009-05-19T12:02:28Z</time>
      </trkpt>
      <trkpt lat="52.990145" lon="13.048517">
        <ele>54.930000</ele>
        <time>2009-05-19T12:02:41Z</time>
      </trkpt>
      <trkpt lat="52.989799" lon="13.048591">
        <ele>54.930000</ele>
        <time>2009-05-19T12:02:52Z</time>
      </trkpt>
      <trkpt lat="52.989255" lon="13.048732">
        <ele>54.930000</ele>
        <time>2009-05-19T12:03:08Z</time>
      </trkpt>
      <trkpt lat="52.988834" lon="13.048835">
        <ele>54.930000</ele>
        <time>2009-05-19T12:03:21Z</time>
      </trkpt>
      <trkpt lat="52.988341" lon="13.048920">
        <ele>55.410000</ele>
        <time>2009-05-19T12:03:34Z</time>
      </trkpt>
      <trkpt lat="52.988080" lon="13.048993">
        <ele>54.930000</ele>
        <time>2009-05-19T12:03:42Z</time>
      </trkpt>
      <trkpt lat="52.987648" lon="13.049090">
        <ele>55.410000</ele>
        <time>2009-05-19T12:03:55Z</time>
      </trkpt>
      <trkpt lat="52.987205" lon="13.049041">
        <ele>55.410000</ele>
        <time>2009-05-19T12:04:09Z</time>
      </trkpt>
      <trkpt lat="52.986781" lon="13.048949">
        <ele>55.890000</ele>
        <time>2009-05-19T12:04:22Z</time>
      </trkpt>
      <trkpt lat="52.986507" lon="13.048410">
        <ele>55.410000</ele>
        <time>2009-05-19T12:04:34Z</time>
      </trkpt>
      <trkpt lat="52.986133" lon="13.047829">
        <ele>55.410000</ele>
        <time>2009-05-19T12:04:48Z</time>
      </trkpt>
      <trkpt lat="52.985812" lon="13.047316">
        <ele>55.410000</ele>
        <time>2009-05-19T12:05:00Z</time>
      </trkpt>
      <trkpt lat="52.985504" lon="13.046832">
        <ele>55.410000</ele>
        <time>2009-05-19T12:05:12Z</time>
      </trkpt>
      <trkpt lat="52.985164" lon="13.046285">
        <ele>54.930000</ele>
        <time>2009-05-19T12:05:25Z</time>
      </trkpt>
      <trkpt lat="52.984782" lon="13.045682">
        <ele>53.970000</ele>
        <time>2009-05-19T12:05:40Z</time>
      </trkpt>
      <trkpt lat="52.984458" lon="13.045119">
        <ele>53.490000</ele>
        <time>2009-05-19T12:05:52Z</time>
      </trkpt>
      <trkpt lat="52.983966" lon="13.044331">
        <ele>53.490000</ele>
        <time>2009-05-19T12:06:10Z</time>
      </trkpt>
      <trkpt lat="52.983582" lon="13.043726">
        <ele>53.970000</ele>
        <time>2009-05-19T12:06:25Z</time>
      </trkpt>
      <trkpt lat="52.983266" lon="13.043192">
        <ele>53.970000</ele>
        <time>2009-05-19T12:06:38Z</time>
      </trkpt>
      <trkpt lat="52.982933" lon="13.042655">
        <ele>53.970000</ele>
        <time>2009-05-19T12:06:51Z</time>
      </trkpt>
      <trkpt lat="52.982525" lon="13.041970">
        <ele>53.490000</ele>
        <time>2009-05-19T12:07:07Z</time>
      </trkpt>
      <trkpt lat="52.982180" lon="13.041437">
        <ele>53.490000</ele>
        <time>2009-05-19T12:07:20Z</time>
      </trkpt>
      <trkpt lat="52.981900" lon="13.040851">
        <ele>53.970000</ele>
        <time>2009-05-19T12:07:34Z</time>
      </trkpt>
      <trkpt lat="52.981771" lon="13.040172">
        <ele>53.970000</ele>
        <time>2009-05-19T12:07:50Z</time>
      </trkpt>
      <trkpt lat="52.981643" lon="13.039692">
        <ele>54.450000</ele>
        <time>2009-05-19T12:08:03Z</time>
      </trkpt>
      <trkpt lat="52.981621" lon="13.038980">
        <ele>54.450000</ele>
        <time>2009-05-19T12:08:17Z</time>
      </trkpt>
      <trkpt lat="52.981616" lon="13.038377">
        <ele>54.450000</ele>
        <time>2009-05-19T12:08:30Z</time>
      </trkpt>
      <trkpt lat="52.981612" lon="13.037853">
        <ele>54.450000</ele>
        <time>2009-05-19T12:08:42Z</time>
      </trkpt>
      <trkpt lat="52.981644" lon="13.037230">
        <ele>54.450000</ele>
        <time>2009-05-19T12:08:55Z</time>
      </trkpt>
      <trkpt lat="52.981666" lon="13.036636">
        <ele>54.450000</ele>
        <time>2009-05-19T12:09:08Z</time>
      </trkpt>
      <trkpt lat="52.981656" lon="13.036289">
        <ele>54.450000</ele>
        <time>2009-05-19T12:09:15Z</time>
      </trkpt>
      <trkpt lat="52.981654" lon="13.035714">
        <ele>54.450000</ele>
        <time>2009-05-19T12:09:30Z</time>
      </trkpt>
      <trkpt lat="52.981626" lon="13.035191">
        <ele>54.450000</ele>
        <time>2009-05-19T12:09:45Z</time>
      </trkpt>
      <trkpt lat="52.981613" lon="13.034645">
        <ele>54.450000</ele>
        <time>2009-05-19T12:10:00Z</time>
      </trkpt>
      <trkpt lat="52.981578" lon="13.034444">
        <ele>53.970000</ele>
        <time>2009-05-19T12:10:05Z</time>
      </trkpt>
      <trkpt lat="52.981467" lon="13.034385">
        <ele>53.970000</ele>
        <time>2009-05-19T12:10:17Z</time>
      </trkpt>
      <trkpt lat="52.981507" lon="13.034414">
        <ele>54.450000</ele>
        <time>2009-05-19T12:10:30Z</time>
      </trkpt>
      <trkpt lat="52.981506" lon="13.034414">
        <ele>53.970000</ele>
        <time>2009-05-19T12:11:32Z</time>
      </trkpt>
      <trkpt lat="52.981503" lon="13.034415">
        <ele>53.970000</ele>
        <time>2009-05-19T12:12:40Z</time>
      </trkpt>
      <trkpt lat="52.981503" lon="13.034424">
        <ele>53.970000</ele>
        <time>2009-05-19T12:14:52Z</time>
      </trkpt>
      <trkpt lat="52.981499" lon="13.034422">
        <ele>53.970000</ele>
        <time>2009-05-19T12:15:59Z</time>
      </trkpt>
      <trkpt lat="52.981496" lon="13.034412">
        <ele>53.970000</ele>
        <time>2009-05-19T12:17:44Z</time>
      </trkpt>
      <trkpt lat="52.981541" lon="13.034447">
        <ele>53.970000</ele>
        <time>2009-05-19T12:18:03Z</time>
      </trkpt>
      <trkpt lat="52.981585" lon="13.034458">
        <ele>53.490000</ele>
        <time>2009-05-19T12:18:08Z</time>
      </trkpt>
      <trkpt lat="52.981659" lon="13.034457">
        <ele>53.970000</ele>
        <time>2009-05-19T12:18:16Z</time>
      </trkpt>
      <trkpt lat="52.981717" lon="13.034343">
        <ele>53.490000</ele>
        <time>2009-05-19T12:18:33Z</time>
      </trkpt>
      <trkpt lat="52.981684" lon="13.034189">
        <ele>53.490000</ele>
        <time>2009-05-19T12:19:22Z</time>
      </trkpt>
      <trkpt lat="52.981690" lon="13.034184">
        <ele>53.970000</ele>
        <time>2009-05-19T12:19:29Z</time>
      </trkpt>
      <trkpt lat="52.981694" lon="13.033956">
        <ele>53.970000</ele>
        <time>2009-05-19T12:19:45Z</time>
      </trkpt>
      <trkpt lat="52.981636" lon="13.033620">
        <ele>53.970000</ele>
        <time>2009-05-19T12:20:07Z</time>
      </trkpt>
      <trkpt lat="52.981643" lon="13.033317">
        <ele>53.970000</ele>
        <time>2009-05-19T12:20:27Z</time>
      </trkpt>
      <trkpt lat="52.981628" lon="13.033035">
        <ele>53.490000</ele>
        <time>2009-05-19T12:20:46Z</time>
      </trkpt>
      <trkpt lat="52.981615" lon="13.032954">
        <ele>53.490000</ele>
        <time>2009-05-19T12:20:55Z</time>
      </trkpt>
      <trkpt lat="52.981629" lon="13.032866">
        <ele>53.970000</ele>
        <time>2009-05-19T12:21:00Z</time>
      </trkpt>
      <trkpt lat="52.981583" lon="13.032760">
        <ele>53.490000</ele>
        <time>2009-05-19T12:21:04Z</time>
      </trkpt>
      <trkpt lat="52.981596" lon="13.032301">
        <ele>53.970000</ele>
        <time>2009-05-19T12:21:18Z</time>
      </trkpt>
      <trkpt lat="52.981593" lon="13.032182">
        <ele>53.970000</ele>
        <time>2009-05-19T12:21:30Z</time>
      </trkpt>
      <trkpt lat="52.981572" lon="13.032126">
        <ele>53.490000</ele>
        <time>2009-05-19T12:21:48Z</time>
      </trkpt>
      <trkpt lat="52.981545" lon="13.031549">
        <ele>53.010000</ele>
        <time>2009-05-19T12:22:04Z</time>
      </trkpt>
      <trkpt lat="52.981498" lon="13.030984">
        <ele>53.010000</ele>
        <time>2009-05-19T12:22:20Z</time>
      </trkpt>
      <trkpt lat="52.981448" lon="13.030425">
        <ele>52.050000</ele>
        <time>2009-05-19T12:22:36Z</time>
      </trkpt>
      <trkpt lat="52.981395" lon="13.029926">
        <ele>52.530000</ele>
        <time>2009-05-19T12:22:52Z</time>
      </trkpt>
      <trkpt lat="52.981381" lon="13.029887">
        <ele>53.490000</ele>
        <time>2009-05-19T12:22:54Z</time>
      </trkpt>
      <trkpt lat="52.981348" lon="13.029867">
        <ele>53.970000</ele>
        <time>2009-05-19T12:22:57Z</time>
      </trkpt>
      <trkpt lat="52.981328" lon="13.029884">
        <ele>53.490000</ele>
        <time>2009-05-19T12:22:59Z</time>
      </trkpt>
      <trkpt lat="52.981270" lon="13.029802">
        <ele>53.490000</ele>
        <time>2009-05-19T12:23:04Z</time>
      </trkpt>
      <trkpt lat="52.981206" lon="13.029291">
        <ele>53.490000</ele>
        <time>2009-05-19T12:23:20Z</time>
      </trkpt>
      <trkpt lat="52.981178" lon="13.029105">
        <ele>53.970000</ele>
        <time>2009-05-19T12:23:27Z</time>
      </trkpt>
      <trkpt lat="52.981171" lon="13.028994">
        <ele>53.490000</ele>
        <time>2009-05-19T12:23:31Z</time>
      </trkpt>
      <trkpt lat="52.981119" lon="13.028516">
        <ele>53.490000</ele>
        <time>2009-05-19T12:23:46Z</time>
      </trkpt>
      <trkpt lat="52.981071" lon="13.028036">
        <ele>53.490000</ele>
        <time>2009-05-19T12:23:58Z</time>
      </trkpt>
      <trkpt lat="52.981012" lon="13.027433">
        <ele>53.970000</ele>
        <time>2009-05-19T12:24:13Z</time>
      </trkpt>
      <trkpt lat="52.980913" lon="13.026560">
        <ele>53.490000</ele>
        <time>2009-05-19T12:24:31Z</time>
      </trkpt>
      <trkpt lat="52.980837" lon="13.025821">
        <ele>53.490000</ele>
        <time>2009-05-19T12:24:46Z</time>
      </trkpt>
      <trkpt lat="52.980774" lon="13.025177">
        <ele>53.490000</ele>
        <time>2009-05-19T12:24:59Z</time>
      </trkpt>
      <trkpt lat="52.980707" lon="13.024571">
        <ele>53.490000</ele>
        <time>2009-05-19T12:25:13Z</time>
      </trkpt>
      <trkpt lat="52.980638" lon="13.023911">
        <ele>52.530000</ele>
        <time>2009-05-19T12:25:27Z</time>
      </trkpt>
      <trkpt lat="52.980561" lon="13.023234">
        <ele>52.530000</ele>
        <time>2009-05-19T12:25:41Z</time>
      </trkpt>
      <trkpt lat="52.980479" lon="13.022396">
        <ele>52.530000</ele>
        <time>2009-05-19T12:25:58Z</time>
      </trkpt>
      <trkpt lat="52.980408" lon="13.021758">
        <ele>52.050000</ele>
        <time>2009-05-19T12:26:12Z</time>
      </trkpt>
      <trkpt lat="52.980346" lon="13.021175">
        <ele>53.490000</ele>
        <time>2009-05-19T12:26:26Z</time>
      </trkpt>
      <trkpt lat="52.980252" lon="13.020365">
        <ele>53.970000</ele>
        <time>2009-05-19T12:26:42Z</time>
      </trkpt>
      <trkpt lat="52.980190" lon="13.019801">
        <ele>53.490000</ele>
        <time>2009-05-19T12:26:54Z</time>
      </trkpt>
      <trkpt lat="52.980116" lon="13.019218">
        <ele>53.490000</ele>
        <time>2009-05-19T12:27:06Z</time>
      </trkpt>
      <trkpt lat="52.980032" lon="13.018216">
        <ele>53.010000</ele>
        <time>2009-05-19T12:27:25Z</time>
      </trkpt>
      <trkpt lat="52.979943" lon="13.017531">
        <ele>53.010000</ele>
        <time>2009-05-19T12:27:39Z</time>
      </trkpt>
      <trkpt lat="52.979855" lon="13.016913">
        <ele>53.490000</ele>
        <time>2009-05-19T12:27:52Z</time>
      </trkpt>
      <trkpt lat="52.979740" lon="13.016187">
        <ele>52.530000</ele>
        <time>2009-05-19T12:28:08Z</time>
      </trkpt>
      <trkpt lat="52.979612" lon="13.015516">
        <ele>52.530000</ele>
        <time>2009-05-19T12:28:24Z</time>
      </trkpt>
      <trkpt lat="52.979494" lon="13.014775">
        <ele>51.570000</ele>
        <time>2009-05-19T12:28:41Z</time>
      </trkpt>
      <trkpt lat="52.979388" lon="13.014003">
        <ele>51.090000</ele>
        <time>2009-05-19T12:28:56Z</time>
      </trkpt>
      <trkpt lat="52.979305" lon="13.013215">
        <ele>51.570000</ele>
        <time>2009-05-19T12:29:11Z</time>
      </trkpt>
      <trkpt lat="52.979245" lon="13.012518">
        <ele>51.570000</ele>
        <time>2009-05-19T12:29:25Z</time>
      </trkpt>
      <trkpt lat="52.979184" lon="13.011955">
        <ele>51.570000</ele>
        <time>2009-05-19T12:29:38Z</time>
      </trkpt>
      <trkpt lat="52.979118" lon="13.011316">
        <ele>51.570000</ele>
        <time>2009-05-19T12:29:52Z</time>
      </trkpt>
      <trkpt lat="52.979059" lon="13.010629">
        <ele>51.570000</ele>
        <time>2009-05-19T12:30:07Z</time>
      </trkpt>
      <trkpt lat="52.979011" lon="13.010163">
        <ele>51.090000</ele>
        <time>2009-05-19T12:30:19Z</time>
      </trkpt>
      <trkpt lat="52.978971" lon="13.009698">
        <ele>50.610000</ele>
        <time>2009-05-19T12:30:30Z</time>
      </trkpt>
      <trkpt lat="52.978892" lon="13.008976">
        <ele>50.610000</ele>
        <time>2009-05-19T12:30:45Z</time>
      </trkpt>
      <trkpt lat="52.978835" lon="13.008406">
        <ele>50.130000</ele>
        <time>2009-05-19T12:30:58Z</time>
      </trkpt>
      <trkpt lat="52.978791" lon="13.007865">
        <ele>50.130000</ele>
        <time>2009-05-19T12:31:09Z</time>
      </trkpt>
      <trkpt lat="52.978780" lon="13.007781">
        <ele>50.130000</ele>
        <time>2009-05-19T12:31:11Z</time>
      </trkpt>
      <trkpt lat="52.978765" lon="13.007630">
        <ele>49.650000</ele>
        <time>2009-05-19T12:31:15Z</time>
      </trkpt>
      <trkpt lat="52.978700" lon="13.006916">
        <ele>49.650000</ele>
        <time>2009-05-19T12:31:26Z</time>
      </trkpt>
      <trkpt lat="52.978669" lon="13.006395">
        <ele>50.130000</ele>
        <time>2009-05-19T12:31:39Z</time>
      </trkpt>
      <trkpt lat="52.978591" lon="13.005774">
        <ele>50.130000</ele>
        <time>2009-05-19T12:31:53Z</time>
      </trkpt>
      <trkpt lat="52.978516" lon="13.005154">
        <ele>49.650000</ele>
        <time>2009-05-19T12:32:06Z</time>
      </trkpt>
      <trkpt lat="52.978453" lon="13.004578">
        <ele>50.130000</ele>
        <time>2009-05-19T12:32:19Z</time>
      </trkpt>
      <trkpt lat="52.978375" lon="13.003944">
        <ele>49.650000</ele>
        <time>2009-05-19T12:32:32Z</time>
      </trkpt>
      <trkpt lat="52.978335" lon="13.003319">
        <ele>49.160000</ele>
        <time>2009-05-19T12:32:46Z</time>
      </trkpt>
      <trkpt lat="52.978325" lon="13.003145">
        <ele>48.200000</ele>
        <time>2009-05-19T12:32:49Z</time>
      </trkpt>
      <trkpt lat="52.978296" lon="13.002915">
        <ele>48.680000</ele>
        <time>2009-05-19T12:32:55Z</time>
      </trkpt>
      <trkpt lat="52.978250" lon="13.002455">
        <ele>49.160000</ele>
        <time>2009-05-19T12:33:07Z</time>
      </trkpt>
      <trkpt lat="52.978259" lon="13.002142">
        <ele>49.160000</ele>
        <time>2009-05-19T12:33:14Z</time>
      </trkpt>
      <trkpt lat="52.978213" lon="13.001900">
        <ele>49.650000</ele>
        <time>2009-05-19T12:33:20Z</time>
      </trkpt>
      <trkpt lat="52.978182" lon="13.001636">
        <ele>49.160000</ele>
        <time>2009-05-19T12:33:26Z</time>
      </trkpt>
      <trkpt lat="52.978112" lon="13.001064">
        <ele>48.200000</ele>
        <time>2009-05-19T12:33:37Z</time>
      </trkpt>
      <trkpt lat="52.978056" lon="13.000314">
        <ele>48.200000</ele>
        <time>2009-05-19T12:33:50Z</time>
      </trkpt>
      <trkpt lat="52.977982" lon="12.999805">
        <ele>49.160000</ele>
        <time>2009-05-19T12:34:01Z</time>
      </trkpt>
      <trkpt lat="52.977947" lon="12.999140">
        <ele>49.160000</ele>
        <time>2009-05-19T12:34:13Z</time>
      </trkpt>
      <trkpt lat="52.977904" lon="12.998584">
        <ele>48.200000</ele>
        <time>2009-05-19T12:34:25Z</time>
      </trkpt>
      <trkpt lat="52.977866" lon="12.998133">
        <ele>48.200000</ele>
        <time>2009-05-19T12:34:36Z</time>
      </trkpt>
      <trkpt lat="52.977793" lon="12.997580">
        <ele>48.200000</ele>
        <time>2009-05-19T12:34:46Z</time>
      </trkpt>
      <trkpt lat="52.977779" lon="12.997385">
        <ele>48.200000</ele>
        <time>2009-05-19T12:34:51Z</time>
      </trkpt>
      <trkpt lat="52.977746" lon="12.996844">
        <ele>47.240000</ele>
        <time>2009-05-19T12:35:01Z</time>
      </trkpt>
      <trkpt lat="52.977747" lon="12.996701">
        <ele>47.240000</ele>
        <time>2009-05-19T12:35:05Z</time>
      </trkpt>
      <trkpt lat="52.977666" lon="12.996301">
        <ele>45.320000</ele>
        <time>2009-05-19T12:35:16Z</time>
      </trkpt>
      <trkpt lat="52.977591" lon="12.995834">
        <ele>42.920000</ele>
        <time>2009-05-19T12:35:23Z</time>
      </trkpt>
      <trkpt lat="52.977566" lon="12.995564">
        <ele>41.950000</ele>
        <time>2009-05-19T12:35:26Z</time>
      </trkpt>
      <trkpt lat="52.977545" lon="12.994697">
        <ele>41.470000</ele>
        <time>2009-05-19T12:35:36Z</time>
      </trkpt>
      <trkpt lat="52.977577" lon="12.994309">
        <ele>41.470000</ele>
        <time>2009-05-19T12:35:47Z</time>
      </trkpt>
      <trkpt lat="52.977505" lon="12.993550">
        <ele>40.510000</ele>
        <time>2009-05-19T12:36:00Z</time>
      </trkpt>
      <trkpt lat="52.977473" lon="12.993040">
        <ele>40.510000</ele>
        <time>2009-05-19T12:36:10Z</time>
      </trkpt>
      <trkpt lat="52.977419" lon="12.992491">
        <ele>40.510000</ele>
        <time>2009-05-19T12:36:21Z</time>
      </trkpt>
      <trkpt lat="52.977320" lon="12.991756">
        <ele>40.510000</ele>
        <time>2009-05-19T12:36:35Z</time>
      </trkpt>
      <trkpt lat="52.977267" lon="12.991046">
        <ele>40.510000</ele>
        <time>2009-05-19T12:36:49Z</time>
      </trkpt>
      <trkpt lat="52.977193" lon="12.990348">
        <ele>40.030000</ele>
        <time>2009-05-19T12:37:03Z</time>
      </trkpt>
      <trkpt lat="52.977137" lon="12.989709">
        <ele>39.550000</ele>
        <time>2009-05-19T12:37:16Z</time>
      </trkpt>
      <trkpt lat="52.977022" lon="12.989160">
        <ele>39.550000</ele>
        <time>2009-05-19T12:37:28Z</time>
      </trkpt>
      <trkpt lat="52.976755" lon="12.988734">
        <ele>39.070000</ele>
        <time>2009-05-19T12:37:42Z</time>
      </trkpt>
      <trkpt lat="52.976367" lon="12.988353">
        <ele>38.590000</ele>
        <time>2009-05-19T12:37:57Z</time>
      </trkpt>
      <trkpt lat="52.975973" lon="12.988012">
        <ele>38.110000</ele>
        <time>2009-05-19T12:38:10Z</time>
      </trkpt>
      <trkpt lat="52.975652" lon="12.987744">
        <ele>37.630000</ele>
        <time>2009-05-19T12:38:20Z</time>
      </trkpt>
      <trkpt lat="52.975632" lon="12.987716">
        <ele>38.110000</ele>
        <time>2009-05-19T12:38:21Z</time>
      </trkpt>
      <trkpt lat="52.975623" lon="12.987649">
        <ele>37.630000</ele>
        <time>2009-05-19T12:38:23Z</time>
      </trkpt>
      <trkpt lat="52.975739" lon="12.987456">
        <ele>38.110000</ele>
        <time>2009-05-19T12:38:36Z</time>
      </trkpt>
      <trkpt lat="52.975729" lon="12.987150">
        <ele>38.590000</ele>
        <time>2009-05-19T12:38:52Z</time>
      </trkpt>
      <trkpt lat="52.975808" lon="12.986960">
        <ele>38.110000</ele>
        <time>2009-05-19T12:39:00Z</time>
      </trkpt>
      <trkpt lat="52.975782" lon="12.986840">
        <ele>38.590000</ele>
        <time>2009-05-19T12:39:04Z</time>
      </trkpt>
      <trkpt lat="52.975760" lon="12.986414">
        <ele>38.590000</ele>
        <time>2009-05-19T12:39:17Z</time>
      </trkpt>
      <trkpt lat="52.975758" lon="12.986174">
        <ele>39.070000</ele>
        <time>2009-05-19T12:39:24Z</time>
      </trkpt>
      <trkpt lat="52.976063" lon="12.985884">
        <ele>39.070000</ele>
        <time>2009-05-19T12:39:40Z</time>
      </trkpt>
      <trkpt lat="52.976336" lon="12.985624">
        <ele>39.070000</ele>
        <time>2009-05-19T12:39:53Z</time>
      </trkpt>
      <trkpt lat="52.976467" lon="12.985466">
        <ele>39.070000</ele>
        <time>2009-05-19T12:39:59Z</time>
      </trkpt>
      <trkpt lat="52.976465" lon="12.985356">
        <ele>39.070000</ele>
        <time>2009-05-19T12:40:02Z</time>
      </trkpt>
      <trkpt lat="52.976835" lon="12.985022">
        <ele>40.030000</ele>
        <time>2009-05-19T12:40:19Z</time>
      </trkpt>
      <trkpt lat="52.977103" lon="12.984837">
        <ele>40.510000</ele>
        <time>2009-05-19T12:40:32Z</time>
      </trkpt>
      <trkpt lat="52.977337" lon="12.984472">
        <ele>40.030000</ele>
        <time>2009-05-19T12:40:44Z</time>
      </trkpt>
      <trkpt lat="52.977651" lon="12.984018">
        <ele>40.510000</ele>
        <time>2009-05-19T12:40:59Z</time>
      </trkpt>
      <trkpt lat="52.977878" lon="12.983601">
        <ele>40.990000</ele>
        <time>2009-05-19T12:41:13Z</time>
      </trkpt>
      <trkpt lat="52.978075" lon="12.982941">
        <ele>40.510000</ele>
        <time>2009-05-19T12:41:28Z</time>
      </trkpt>
      <trkpt lat="52.978221" lon="12.982100">
        <ele>38.110000</ele>
        <time>2009-05-19T12:41:38Z</time>
      </trkpt>
      <trkpt lat="52.978525" lon="12.981284">
        <ele>39.070000</ele>
        <time>2009-05-19T12:41:52Z</time>
      </trkpt>
      <trkpt lat="52.978554" lon="12.981168">
        <ele>39.070000</ele>
        <time>2009-05-19T12:41:55Z</time>
      </trkpt>
      <trkpt lat="52.978415" lon="12.981028">
        <ele>38.110000</ele>
        <time>2009-05-19T12:42:02Z</time>
      </trkpt>
      <trkpt lat="52.978000" lon="12.981380">
        <ele>38.110000</ele>
        <time>2009-05-19T12:42:17Z</time>
      </trkpt>
      <trkpt lat="52.977620" lon="12.981621">
        <ele>37.630000</ele>
        <time>2009-05-19T12:42:31Z</time>
      </trkpt>
      <trkpt lat="52.977201" lon="12.981898">
        <ele>38.110000</ele>
        <time>2009-05-19T12:42:46Z</time>
      </trkpt>
      <trkpt lat="52.976857" lon="12.982069">
        <ele>38.110000</ele>
        <time>2009-05-19T12:42:58Z</time>
      </trkpt>
      <trkpt lat="52.976544" lon="12.982257">
        <ele>37.630000</ele>
        <time>2009-05-19T12:43:11Z</time>
      </trkpt>
      <trkpt lat="52.976209" lon="12.982425">
        <ele>38.110000</ele>
        <time>2009-05-19T12:43:25Z</time>
      </trkpt>
      <trkpt lat="52.975901" lon="12.982571">
        <ele>38.110000</ele>
        <time>2009-05-19T12:43:38Z</time>
      </trkpt>
      <trkpt lat="52.975556" lon="12.982859">
        <ele>37.630000</ele>
        <time>2009-05-19T12:43:55Z</time>
      </trkpt>
      <trkpt lat="52.975099" lon="12.983047">
        <ele>36.670000</ele>
        <time>2009-05-19T12:44:07Z</time>
      </trkpt>
      <trkpt lat="52.974619" lon="12.983247">
        <ele>36.670000</ele>
        <time>2009-05-19T12:44:21Z</time>
      </trkpt>
      <trkpt lat="52.974234" lon="12.983351">
        <ele>36.670000</ele>
        <time>2009-05-19T12:44:36Z</time>
      </trkpt>
      <trkpt lat="52.973846" lon="12.983519">
        <ele>36.190000</ele>
        <time>2009-05-19T12:44:52Z</time>
      </trkpt>
      <trkpt lat="52.973456" lon="12.983543">
        <ele>36.190000</ele>
        <time>2009-05-19T12:45:09Z</time>
      </trkpt>
      <trkpt lat="52.973190" lon="12.983587">
        <ele>36.670000</ele>
        <time>2009-05-19T12:45:22Z</time>
      </trkpt>
      <trkpt lat="52.972887" lon="12.983600">
        <ele>36.670000</ele>
        <time>2009-05-19T12:45:36Z</time>
      </trkpt>
      <trkpt lat="52.972612" lon="12.983596">
        <ele>36.190000</ele>
        <time>2009-05-19T12:45:50Z</time>
      </trkpt>
      <trkpt lat="52.972370" lon="12.983555">
        <ele>36.190000</ele>
        <time>2009-05-19T12:46:04Z</time>
      </trkpt>
      <trkpt lat="52.972340" lon="12.983559">
        <ele>36.190000</ele>
        <time>2009-05-19T12:46:05Z</time>
      </trkpt>
      <trkpt lat="52.972216" lon="12.983436">
        <ele>36.190000</ele>
        <time>2009-05-19T12:46:11Z</time>
      </trkpt>
      <trkpt lat="52.972150" lon="12.983081">
        <ele>35.710000</ele>
        <time>2009-05-19T12:46:24Z</time>
      </trkpt>
      <trkpt lat="52.972321" lon="12.983045">
        <ele>35.710000</ele>
        <time>2009-05-19T12:46:36Z</time>
      </trkpt>
      <trkpt lat="52.972330" lon="12.983039">
        <ele>35.710000</ele>
        <time>2009-05-19T12:46:37Z</time>
      </trkpt>
      <trkpt lat="52.972351" lon="12.982939">
        <ele>35.710000</ele>
        <time>2009-05-19T12:46:48Z</time>
      </trkpt>
      <trkpt lat="52.972358" lon="12.982970">
        <ele>36.190000</ele>
        <time>2009-05-19T12:47:01Z</time>
      </trkpt>
      <trkpt lat="52.972358" lon="12.982970">
        <ele>35.710000</ele>
        <time>2009-05-19T12:47:32Z</time>
      </trkpt>
      <trkpt lat="52.972249" lon="12.983040">
        <ele>35.710000</ele>
        <time>2009-05-19T12:47:45Z</time>
      </trkpt>
      <trkpt lat="52.972154" lon="12.983156">
        <ele>35.710000</ele>
        <time>2009-05-19T12:48:01Z</time>
      </trkpt>
      <trkpt lat="52.972083" lon="12.983179">
        <ele>35.710000</ele>
        <time>2009-05-19T12:48:15Z</time>
      </trkpt>
      <trkpt lat="52.971960" lon="12.983124">
        <ele>36.190000</ele>
        <time>2009-05-19T12:48:33Z</time>
      </trkpt>
      <trkpt lat="52.971964" lon="12.983012">
        <ele>36.190000</ele>
        <time>2009-05-19T12:48:48Z</time>
      </trkpt>
      <trkpt lat="52.971977" lon="12.982851">
        <ele>35.710000</ele>
        <time>2009-05-19T12:49:04Z</time>
      </trkpt>
      <trkpt lat="52.971820" lon="12.982759">
        <ele>35.710000</ele>
        <time>2009-05-19T12:49:24Z</time>
      </trkpt>
      <trkpt lat="52.971791" lon="12.982739">
        <ele>35.710000</ele>
        <time>2009-05-19T12:49:41Z</time>
      </trkpt>
      <trkpt lat="52.971751" lon="12.982826">
        <ele>35.710000</ele>
        <time>2009-05-19T12:50:36Z</time>
      </trkpt>
      <trkpt lat="52.971729" lon="12.983026">
        <ele>36.190000</ele>
        <time>2009-05-19T12:50:54Z</time>
      </trkpt>
      <trkpt lat="52.971702" lon="12.983184">
        <ele>36.190000</ele>
        <time>2009-05-19T12:51:10Z</time>
      </trkpt>
      <trkpt lat="52.971794" lon="12.983251">
        <ele>36.190000</ele>
        <time>2009-05-19T12:51:26Z</time>
      </trkpt>
      <trkpt lat="52.971968" lon="12.983159">
        <ele>36.190000</ele>
        <time>2009-05-19T12:51:48Z</time>
      </trkpt>
      <trkpt lat="52.972084" lon="12.983198">
        <ele>36.190000</ele>
        <time>2009-05-19T12:52:06Z</time>
      </trkpt>
      <trkpt lat="52.972118" lon="12.983216">
        <ele>36.190000</ele>
        <time>2009-05-19T12:52:09Z</time>
      </trkpt>
      <trkpt lat="52.972247" lon="12.983089">
        <ele>36.190000</ele>
        <time>2009-05-19T12:52:27Z</time>
      </trkpt>
      <trkpt lat="52.972338" lon="12.983047">
        <ele>36.190000</ele>
        <time>2009-05-19T12:52:39Z</time>
      </trkpt>
      <trkpt lat="52.972353" lon="12.982972">
        <ele>36.190000</ele>
        <time>2009-05-19T12:52:55Z</time>
      </trkpt>
      <trkpt lat="52.972347" lon="12.982966">
        <ele>36.190000</ele>
        <time>2009-05-19T12:55:57Z</time>
      </trkpt>
      <trkpt lat="52.972335" lon="12.982992">
        <ele>36.190000</ele>
        <time>2009-05-19T13:00:04Z</time>
      </trkpt>
      <trkpt lat="52.972340" lon="12.982989">
        <ele>36.190000</ele>
        <time>2009-05-19T13:00:55Z</time>
      </trkpt>
      <trkpt lat="52.972340" lon="12.982998">
        <ele>36.670000</ele>
        <time>2009-05-19T13:02:44Z</time>
      </trkpt>
      <trkpt lat="52.972342" lon="12.982997">
        <ele>37.150000</ele>
        <time>2009-05-19T13:03:38Z</time>
      </trkpt>
      <trkpt lat="52.972345" lon="12.982993">
        <ele>36.670000</ele>
        <time>2009-05-19T13:04:44Z</time>
      </trkpt>
      <trkpt lat="52.972341" lon="12.983005">
        <ele>37.150000</ele>
        <time>2009-05-19T13:06:11Z</time>
      </trkpt>
      <trkpt lat="52.972340" lon="12.982987">
        <ele>37.150000</ele>
        <time>2009-05-19T13:09:17Z</time>
      </trkpt>
      <trkpt lat="52.972335" lon="12.982989">
        <ele>37.630000</ele>
        <time>2009-05-19T13:12:27Z</time>
      </trkpt>
      <trkpt lat="52.972341" lon="12.982986">
        <ele>37.630000</ele>
        <time>2009-05-19T13:13:22Z</time>
      </trkpt>
      <trkpt lat="52.972351" lon="12.982996">
        <ele>38.110000</ele>
        <time>2009-05-19T13:15:52Z</time>
      </trkpt>
      <trkpt lat="52.972350" lon="12.983002">
        <ele>38.110000</ele>
        <time>2009-05-19T13:18:17Z</time>
      </trkpt>
      <trkpt lat="52.972350" lon="12.983001">
        <ele>38.110000</ele>
        <time>2009-05-19T13:19:21Z</time>
      </trkpt>
      <trkpt lat="52.972349" lon="12.983000">
        <ele>38.590000</ele>
        <time>2009-05-19T13:21:15Z</time>
      </trkpt>
      <trkpt lat="52.972340" lon="12.983002">
        <ele>38.590000</ele>
        <time>2009-05-19T13:22:57Z</time>
      </trkpt>
      <trkpt lat="52.972342" lon="12.983001">
        <ele>38.590000</ele>
        <time>2009-05-19T13:24:11Z</time>
      </trkpt>
      <trkpt lat="52.972343" lon="12.982979">
        <ele>38.110000</ele>
        <time>2009-05-19T13:27:12Z</time>
      </trkpt>
      <trkpt lat="52.972341" lon="12.982986">
        <ele>38.110000</ele>
        <time>2009-05-19T13:28:26Z</time>
      </trkpt>
      <trkpt lat="52.972343" lon="12.982988">
        <ele>38.110000</ele>
        <time>2009-05-19T13:29:27Z</time>
      </trkpt>
      <trkpt lat="52.972348" lon="12.982998">
        <ele>38.110000</ele>
        <time>2009-05-19T13:36:15Z</time>
      </trkpt>
      <trkpt lat="52.972349" lon="12.983005">
        <ele>37.630000</ele>
        <time>2009-05-19T13:42:27Z</time>
      </trkpt>
      <trkpt lat="52.972354" lon="12.983009">
        <ele>38.110000</ele>
        <time>2009-05-19T13:43:24Z</time>
      </trkpt>
      <trkpt lat="52.972352" lon="12.982980">
        <ele>38.110000</ele>
        <time>2009-05-19T13:46:07Z</time>
      </trkpt>
      <trkpt lat="52.972352" lon="12.982979">
        <ele>38.110000</ele>
        <time>2009-05-19T13:47:02Z</time>
      </trkpt>
      <trkpt lat="52.972354" lon="12.982975">
        <ele>38.110000</ele>
        <time>2009-05-19T13:48:12Z</time>
      </trkpt>
      <trkpt lat="52.972355" lon="12.982964">
        <ele>37.630000</ele>
        <time>2009-05-19T13:49:14Z</time>
      </trkpt>
      <trkpt lat="52.972352" lon="12.982956">
        <ele>38.110000</ele>
        <time>2009-05-19T13:50:12Z</time>
      </trkpt>
      <trkpt lat="52.972353" lon="12.982948">
        <ele>37.630000</ele>
        <time>2009-05-19T13:51:03Z</time>
      </trkpt>
      <trkpt lat="52.972350" lon="12.982954">
        <ele>38.110000</ele>
        <time>2009-05-19T13:51:34Z</time>
      </trkpt>
      <trkpt lat="52.972345" lon="12.982964">
        <ele>38.110000</ele>
        <time>2009-05-19T13:52:12Z</time>
      </trkpt>
      <trkpt lat="52.972345" lon="12.982964">
        <ele>37.630000</ele>
        <time>2009-05-19T13:52:47Z</time>
      </trkpt>
      <trkpt lat="52.972342" lon="12.982967">
        <ele>37.630000</ele>
        <time>2009-05-19T13:54:23Z</time>
      </trkpt>
      <trkpt lat="52.972317" lon="12.982948">
        <ele>38.110000</ele>
        <time>2009-05-19T13:55:11Z</time>
      </trkpt>
      <trkpt lat="52.972230" lon="12.983045">
        <ele>37.630000</ele>
        <time>2009-05-19T13:55:28Z</time>
      </trkpt>
      <trkpt lat="52.972127" lon="12.983173">
        <ele>38.110000</ele>
        <time>2009-05-19T13:55:45Z</time>
      </trkpt>
      <trkpt lat="52.972054" lon="12.983171">
        <ele>37.630000</ele>
        <time>2009-05-19T13:55:56Z</time>
      </trkpt>
      <trkpt lat="52.971898" lon="12.983145">
        <ele>37.630000</ele>
        <time>2009-05-19T13:56:15Z</time>
      </trkpt>
      <trkpt lat="52.971768" lon="12.983253">
        <ele>38.110000</ele>
        <time>2009-05-19T13:56:34Z</time>
      </trkpt>
      <trkpt lat="52.971739" lon="12.983496">
        <ele>39.550000</ele>
        <time>2009-05-19T13:56:52Z</time>
      </trkpt>
      <trkpt lat="52.971746" lon="12.983671">
        <ele>39.550000</ele>
        <time>2009-05-19T13:57:09Z</time>
      </trkpt>
      <trkpt lat="52.971745" lon="12.983683">
        <ele>39.550000</ele>
        <time>2009-05-19T13:57:11Z</time>
      </trkpt>
      <trkpt lat="52.971697" lon="12.984142">
        <ele>38.590000</ele>
        <time>2009-05-19T13:57:26Z</time>
      </trkpt>
      <trkpt lat="52.971660" lon="12.984466">
        <ele>38.590000</ele>
        <time>2009-05-19T13:57:40Z</time>
      </trkpt>
      <trkpt lat="52.971657" lon="12.984490">
        <ele>38.590000</ele>
        <time>2009-05-19T13:57:41Z</time>
      </trkpt>
      <trkpt lat="52.971635" lon="12.984710">
        <ele>38.590000</ele>
        <time>2009-05-19T13:57:51Z</time>
      </trkpt>
      <trkpt lat="52.971620" lon="12.984981">
        <ele>39.070000</ele>
        <time>2009-05-19T13:58:04Z</time>
      </trkpt>
      <trkpt lat="52.971630" lon="12.985074">
        <ele>39.070000</ele>
        <time>2009-05-19T13:58:08Z</time>
      </trkpt>
      <trkpt lat="52.971675" lon="12.985120">
        <ele>39.550000</ele>
        <time>2009-05-19T13:58:13Z</time>
      </trkpt>
      <trkpt lat="52.971799" lon="12.985159">
        <ele>39.070000</ele>
        <time>2009-05-19T13:58:24Z</time>
      </trkpt>
      <trkpt lat="52.971916" lon="12.985168">
        <ele>39.070000</ele>
        <time>2009-05-19T13:58:31Z</time>
      </trkpt>
      <trkpt lat="52.972024" lon="12.985271">
        <ele>38.590000</ele>
        <time>2009-05-19T13:58:41Z</time>
      </trkpt>
      <trkpt lat="52.972018" lon="12.985329">
        <ele>38.590000</ele>
        <time>2009-05-19T13:58:43Z</time>
      </trkpt>
      <trkpt lat="52.972004" lon="12.985720">
        <ele>38.590000</ele>
        <time>2009-05-19T13:58:58Z</time>
      </trkpt>
      <trkpt lat="52.971992" lon="12.986105">
        <ele>38.590000</ele>
        <time>2009-05-19T13:59:12Z</time>
      </trkpt>
      <trkpt lat="52.971987" lon="12.986481">
        <ele>39.070000</ele>
        <time>2009-05-19T13:59:26Z</time>
      </trkpt>
      <trkpt lat="52.971981" lon="12.986838">
        <ele>39.550000</ele>
        <time>2009-05-19T13:59:41Z</time>
      </trkpt>
      <trkpt lat="52.971972" lon="12.987097">
        <ele>39.550000</ele>
        <time>2009-05-19T13:59:54Z</time>
      </trkpt>
      <trkpt lat="52.971953" lon="12.987400">
        <ele>39.550000</ele>
        <time>2009-05-19T14:00:04Z</time>
      </trkpt>
      <trkpt lat="52.972002" lon="12.987888">
        <ele>39.550000</ele>
        <time>2009-05-19T14:00:20Z</time>
      </trkpt>
      <trkpt lat="52.971976" lon="12.988016">
        <ele>39.550000</ele>
        <time>2009-05-19T14:00:35Z</time>
      </trkpt>
      <trkpt lat="52.971968" lon="12.988047">
        <ele>39.070000</ele>
        <time>2009-05-19T14:00:40Z</time>
      </trkpt>
      <trkpt lat="52.971977" lon="12.988200">
        <ele>39.550000</ele>
        <time>2009-05-19T14:00:49Z</time>
      </trkpt>
      <trkpt lat="52.971987" lon="12.988304">
        <ele>39.550000</ele>
        <time>2009-05-19T14:00:56Z</time>
      </trkpt>
      <trkpt lat="52.971975" lon="12.988383">
        <ele>39.550000</ele>
        <time>2009-05-19T14:01:00Z</time>
      </trkpt>
      <trkpt lat="52.971950" lon="12.988597">
        <ele>39.550000</ele>
        <time>2009-05-19T14:01:08Z</time>
      </trkpt>
      <trkpt lat="52.971943" lon="12.988936">
        <ele>39.070000</ele>
        <time>2009-05-19T14:01:21Z</time>
      </trkpt>
      <trkpt lat="52.971807" lon="12.989360">
        <ele>38.590000</ele>
        <time>2009-05-19T14:01:36Z</time>
      </trkpt>
      <trkpt lat="52.971772" lon="12.989750">
        <ele>38.590000</ele>
        <time>2009-05-19T14:01:45Z</time>
      </trkpt>
      <trkpt lat="52.971849" lon="12.989923">
        <ele>38.590000</ele>
        <time>2009-05-19T14:01:51Z</time>
      </trkpt>
      <trkpt lat="52.971796" lon="12.990010">
        <ele>38.590000</ele>
        <time>2009-05-19T14:01:56Z</time>
      </trkpt>
      <trkpt lat="52.971714" lon="12.990084">
        <ele>39.070000</ele>
        <time>2009-05-19T14:02:02Z</time>
      </trkpt>
      <trkpt lat="52.971466" lon="12.990177">
        <ele>39.070000</ele>
        <time>2009-05-19T14:02:16Z</time>
      </trkpt>
      <trkpt lat="52.971411" lon="12.990175">
        <ele>39.070000</ele>
        <time>2009-05-19T14:02:20Z</time>
      </trkpt>
      <trkpt lat="52.971338" lon="12.990190">
        <ele>39.070000</ele>
        <time>2009-05-19T14:02:25Z</time>
      </trkpt>
      <trkpt lat="52.971147" lon="12.990157">
        <ele>39.070000</ele>
        <time>2009-05-19T14:02:42Z</time>
      </trkpt>
      <trkpt lat="52.971139" lon="12.990207">
        <ele>39.070000</ele>
        <time>2009-05-19T14:03:00Z</time>
      </trkpt>
      <trkpt lat="52.971142" lon="12.990418">
        <ele>39.550000</ele>
        <time>2009-05-19T14:03:14Z</time>
      </trkpt>
      <trkpt lat="52.971077" lon="12.990646">
        <ele>39.070000</ele>
        <time>2009-05-19T14:03:27Z</time>
      </trkpt>
      <trkpt lat="52.971084" lon="12.990659">
        <ele>39.070000</ele>
        <time>2009-05-19T14:03:29Z</time>
      </trkpt>
      <trkpt lat="52.971056" lon="12.990808">
        <ele>39.070000</ele>
        <time>2009-05-19T14:03:41Z</time>
      </trkpt>
      <trkpt lat="52.970985" lon="12.990884">
        <ele>39.070000</ele>
        <time>2009-05-19T14:03:56Z</time>
      </trkpt>
    </trkseg>
  </trk>

</gpx>
